ANA890 YSSY-RJTT
Flight info
| Callsign | ANA890 |
|---|---|
| Flight time | N/A |
| Altitude | 35000 |
| Route | OLSEM H252 UPNEX H140 IDNER H66 LAGOB/N0492F340 H252 BN Q67 GUDSO Q24 KELPI B220 DOTOD/N0491F360 B220 PY B586 HUTEL/N0487F380 B586 CADDY/N0476F390 T871 TOPIT Y875 AROSA |
| Aircraft | B77W/H-SDE1E2E3FGHIJ2J3J4J5M1RWXY/LB1D1 |
Departure
| Time | 2026-05-06 02:10 |
|---|---|
| Airport | Sydney Kingsford Smith International Airport (YSSY) |
Arrival
| Time | N/A |
|---|---|
| Airport | Tokyo Haneda International Airport (RJTT) |
| Time | Latitude | Longitude | Altitude | Speed | Heading |
|---|---|---|---|---|---|
| 2026-05-06 01:18 | -33.93931 | 151.16460 | 41 ft | 0 kts | 150° |
| 2026-05-06 01:47 | -33.93930 | 151.16460 | 41 ft | 0 kts | 150° |
| 2026-05-06 01:50 | -33.93927 | 151.16457 | 41 ft | 2 kts | 151° |
| 2026-05-06 01:50 | -33.93914 | 151.16449 | 41 ft | 2 kts | 159° |
| 2026-05-06 01:51 | -33.93899 | 151.16444 | 41 ft | 2 kts | 166° |
| 2026-05-06 01:51 | -33.93885 | 151.16440 | 41 ft | 2 kts | 169° |
| 2026-05-06 01:51 | -33.93872 | 151.16432 | 41 ft | 2 kts | 129° |
| 2026-05-06 01:51 | -33.93864 | 151.16417 | 41 ft | 2 kts | 108° |
| 2026-05-06 01:52 | -33.93864 | 151.16400 | 41 ft | 2 kts | 63° |
| 2026-05-06 01:52 | -33.93874 | 151.16388 | 41 ft | 2 kts | 29° |
| 2026-05-06 01:52 | -33.93887 | 151.16380 | 41 ft | 2 kts | 26° |
| 2026-05-06 01:52 | -33.93897 | 151.16368 | 41 ft | 2 kts | 80° |
| 2026-05-06 01:53 | -33.93895 | 151.16353 | 41 ft | 2 kts | 132° |
| 2026-05-06 01:53 | -33.93883 | 151.16342 | 41 ft | 2 kts | 154° |
| 2026-05-06 01:53 | -33.93870 | 151.16334 | 41 ft | 2 kts | 150° |
| 2026-05-06 01:53 | -33.93860 | 151.16327 | 41 ft | 0 kts | 147° |
| 2026-05-06 01:54 | -33.93859 | 151.16327 | 41 ft | 0 kts | 147° |
| 2026-05-06 01:55 | -33.93870 | 151.16334 | 41 ft | 4 kts | 150° |
| 2026-05-06 01:56 | -33.93903 | 151.16333 | 41 ft | 5 kts | 213° |
| 2026-05-06 01:56 | -33.93935 | 151.16307 | 41 ft | 6 kts | 201° |
| 2026-05-06 01:56 | -33.93993 | 151.16289 | 41 ft | 10 kts | 192° |
| 2026-05-06 01:56 | -33.94072 | 151.16273 | 41 ft | 12 kts | 181° |
| 2026-05-06 01:57 | -33.94156 | 151.16299 | 41 ft | 11 kts | 141° |
| 2026-05-06 01:57 | -33.94169 | 151.16383 | 41 ft | 10 kts | 77° |
| 2026-05-06 01:57 | -33.94149 | 151.16470 | 41 ft | 11 kts | 74° |
| 2026-05-06 01:57 | -33.94125 | 151.16574 | 41 ft | 13 kts | 75° |
| 2026-05-06 01:58 | -33.94103 | 151.16673 | 41 ft | 11 kts | 74° |
| 2026-05-06 01:58 | -33.94080 | 151.16769 | 41 ft | 12 kts | 74° |
| 2026-05-06 01:58 | -33.94055 | 151.16872 | 41 ft | 13 kts | 74° |
| 2026-05-06 01:58 | -33.94029 | 151.16983 | 41 ft | 14 kts | 74° |
| 2026-05-06 01:59 | -33.94002 | 151.17097 | 41 ft | 13 kts | 75° |
| 2026-05-06 01:59 | -33.93982 | 151.17186 | 41 ft | 7 kts | 72° |
| 2026-05-06 01:59 | -33.93949 | 151.17215 | 41 ft | 5 kts | 4° |
| 2026-05-06 01:59 | -33.93901 | 151.17206 | 41 ft | 7 kts | 349° |
| 2026-05-06 02:00 | -33.93839 | 151.17191 | 41 ft | 10 kts | 348° |
| 2026-05-06 02:00 | -33.93753 | 151.17168 | 41 ft | 14 kts | 348° |
| 2026-05-06 02:00 | -33.93646 | 151.17139 | 41 ft | 17 kts | 348° |
| 2026-05-06 02:00 | -33.93518 | 151.17107 | 41 ft | 19 kts | 348° |
| 2026-05-06 02:01 | -33.93390 | 151.17075 | 41 ft | 17 kts | 348° |
| 2026-05-06 02:01 | -33.93295 | 151.17004 | 41 ft | 15 kts | 311° |
| 2026-05-06 02:01 | -33.93209 | 151.16950 | 41 ft | 13 kts | 347° |
| 2026-05-06 02:01 | -33.93124 | 151.16928 | 41 ft | 11 kts | 348° |
| 2026-05-06 02:02 | -33.93048 | 151.16908 | 41 ft | 10 kts | 348° |
| 2026-05-06 02:02 | -33.93002 | 151.16908 | 41 ft | 5 kts | 39° |
| 2026-05-06 02:02 | -33.92983 | 151.16959 | 41 ft | 8 kts | 75° |
| 2026-05-06 02:02 | -33.92968 | 151.17038 | 41 ft | 11 kts | 77° |
| 2026-05-06 02:03 | -33.92963 | 151.17131 | 41 ft | 10 kts | 110° |
| 2026-05-06 02:03 | -33.92998 | 151.17172 | 41 ft | 4 kts | 160° |
| 2026-05-06 02:03 | -33.93009 | 151.17175 | 41 ft | 0 kts | 167° |
| 2026-05-06 02:08 | -33.93012 | 151.17175 | 41 ft | 3 kts | 167° |
| 2026-05-06 02:09 | -33.93193 | 151.17223 | 41 ft | 58 kts | 168° |
| 2026-05-06 02:09 | -33.93827 | 151.17387 | 41 ft | 123 kts | 168° |
| 2026-05-06 02:09 | -33.94846 | 151.17653 | 51 ft | 176 kts | 169° |
| 2026-05-06 02:09 | -33.96135 | 151.17993 | 363 ft | 198 kts | 168° |
| 2026-05-06 02:10 | -33.97541 | 151.18254 | 1069 ft | 208 kts | 183° |
| 2026-05-06 02:10 | -33.98961 | 151.18080 | 1647 ft | 214 kts | 186° |
| 2026-05-06 02:10 | -34.00509 | 151.17841 | 1923 ft | 233 kts | 186° |
| 2026-05-06 02:10 | -34.02187 | 151.17601 | 2272 ft | 252 kts | 180° |
| 2026-05-06 02:11 | -34.03959 | 151.17906 | 2710 ft | 265 kts | 164° |
| 2026-05-06 02:11 | -34.05744 | 151.18503 | 3489 ft | 266 kts | 163° |
| 2026-05-06 02:11 | -34.07524 | 151.19112 | 4168 ft | 271 kts | 163° |
| 2026-05-06 02:11 | -34.09357 | 151.19728 | 4887 ft | 275 kts | 163° |
| 2026-05-06 02:12 | -34.11201 | 151.20346 | 5572 ft | 279 kts | 164° |
| 2026-05-06 02:12 | -34.13096 | 151.20978 | 6223 ft | 284 kts | 164° |
| 2026-05-06 02:12 | -34.14996 | 151.21611 | 6930 ft | 286 kts | 165° |
| 2026-05-06 02:12 | -34.16906 | 151.22249 | 7625 ft | 287 kts | 165° |
| 2026-05-06 02:13 | -34.18877 | 151.22540 | 8199 ft | 290 kts | 188° |
| 2026-05-06 02:13 | -34.20799 | 151.21790 | 8781 ft | 290 kts | 215° |
| 2026-05-06 02:13 | -34.22313 | 151.20212 | 9422 ft | 289 kts | 229° |
| 2026-05-06 02:13 | -34.23645 | 151.18407 | 10081 ft | 290 kts | 232° |
| 2026-05-06 02:14 | -34.24823 | 151.16425 | 10442 ft | 300 kts | 247° |
| 2026-05-06 02:14 | -34.25372 | 151.13965 | 10771 ft | 309 kts | 270° |
| 2026-05-06 02:14 | -34.25130 | 151.11362 | 11430 ft | 310 kts | 284° |
| 2026-05-06 02:14 | -34.24613 | 151.08853 | 12211 ft | 309 kts | 289° |
| 2026-05-06 02:15 | -34.23708 | 151.06673 | 12820 ft | 311 kts | 308° |
| 2026-05-06 02:15 | -34.22109 | 151.04880 | 13457 ft | 316 kts | 328° |
| 2026-05-06 02:15 | -34.20077 | 151.03896 | 14125 ft | 321 kts | 345° |
| 2026-05-06 02:15 | -34.17871 | 151.03340 | 14874 ft | 324 kts | 347° |
| 2026-05-06 02:16 | -34.15635 | 151.02841 | 15609 ft | 326 kts | 347° |
| 2026-05-06 02:16 | -34.13394 | 151.02335 | 16279 ft | 331 kts | 347° |
| 2026-05-06 02:16 | -34.11139 | 151.01816 | 16986 ft | 333 kts | 346° |
| 2026-05-06 02:16 | -34.08896 | 151.01125 | 17679 ft | 334 kts | 341° |
| 2026-05-06 02:17 | -34.06656 | 151.00336 | 18375 ft | 337 kts | 341° |
| 2026-05-06 02:17 | -34.04381 | 150.99556 | 19015 ft | 341 kts | 341° |
| 2026-05-06 02:17 | -34.02082 | 150.98784 | 19650 ft | 345 kts | 342° |
| 2026-05-06 02:17 | -33.99768 | 150.98016 | 20256 ft | 349 kts | 342° |
| 2026-05-06 02:18 | -33.97471 | 150.97044 | 20808 ft | 352 kts | 335° |
| 2026-05-06 02:18 | -33.95188 | 150.95874 | 21066 ft | 366 kts | 334° |
| 2026-05-06 02:18 | -33.92796 | 150.94632 | 21261 ft | 382 kts | 334° |
| 2026-05-06 02:18 | -33.90288 | 150.93335 | 21576 ft | 393 kts | 334° |
| 2026-05-06 02:19 | -33.87781 | 150.92042 | 22092 ft | 400 kts | 334° |
| 2026-05-06 02:19 | -33.85149 | 150.90686 | 22360 ft | 414 kts | 335° |
| 2026-05-06 02:19 | -33.82489 | 150.89317 | 22658 ft | 426 kts | 335° |
| 2026-05-06 02:19 | -33.79723 | 150.87897 | 23207 ft | 431 kts | 334° |
| 2026-05-06 02:20 | -33.74173 | 150.85046 | 24530 ft | 436 kts | 334° |
| 2026-05-06 02:20 | -33.71369 | 150.83603 | 25147 ft | 439 kts | 334° |
| 2026-05-06 02:20 | -33.68566 | 150.82163 | 25680 ft | 443 kts | 334° |
| 2026-05-06 02:21 | -33.65710 | 150.80696 | 26197 ft | 447 kts | 334° |
| 2026-05-06 02:21 | -33.62826 | 150.79215 | 26713 ft | 451 kts | 334° |
| 2026-05-06 02:21 | -33.59956 | 150.77739 | 27263 ft | 453 kts | 334° |
| 2026-05-06 02:21 | -33.56987 | 150.76289 | 27791 ft | 457 kts | 339° |
| 2026-05-06 02:22 | -33.53919 | 150.75328 | 28310 ft | 462 kts | 347° |
| 2026-05-06 02:22 | -33.50728 | 150.74776 | 28796 ft | 466 kts | 349° |
| 2026-05-06 02:22 | -33.47486 | 150.74278 | 29242 ft | 470 kts | 349° |
| 2026-05-06 02:22 | -33.44220 | 150.73781 | 29751 ft | 472 kts | 349° |
| 2026-05-06 02:23 | -33.40965 | 150.73285 | 30359 ft | 472 kts | 349° |
| 2026-05-06 02:23 | -33.37734 | 150.72794 | 31085 ft | 468 kts | 349° |
| 2026-05-06 02:23 | -33.34532 | 150.72308 | 31795 ft | 463 kts | 349° |
| 2026-05-06 02:23 | -33.31345 | 150.71826 | 32468 ft | 459 kts | 348° |
| 2026-05-06 02:24 | -33.28185 | 150.71347 | 33007 ft | 457 kts | 348° |
| 2026-05-06 02:24 | -33.25034 | 150.70869 | 33518 ft | 455 kts | 348° |
| 2026-05-06 02:24 | -33.21863 | 150.70390 | 33981 ft | 454 kts | 348° |
| 2026-05-06 02:24 | -33.18724 | 150.69914 | 34088 ft | 456 kts | 347° |
| 2026-05-06 02:25 | -33.15602 | 150.69443 | 34113 ft | 453 kts | 347° |
| 2026-05-06 02:25 | -33.09339 | 150.68497 | 34116 ft | 451 kts | 347° |
| 2026-05-06 02:26 | -33.03043 | 150.67546 | 34105 ft | 452 kts | 347° |
| 2026-05-06 02:26 | -32.96831 | 150.66611 | 34102 ft | 450 kts | 347° |
| 2026-05-06 02:27 | -32.90579 | 150.65669 | 34091 ft | 450 kts | 347° |
| 2026-05-06 02:27 | -32.84397 | 150.64740 | 34098 ft | 451 kts | 347° |
| 2026-05-06 02:28 | -32.78176 | 150.63806 | 34099 ft | 449 kts | 347° |
| 2026-05-06 02:28 | -32.71959 | 150.62875 | 34095 ft | 450 kts | 347° |
| 2026-05-06 02:29 | -32.65727 | 150.61943 | 34093 ft | 446 kts | 346° |
| 2026-05-06 02:29 | -32.59548 | 150.61020 | 34094 ft | 449 kts | 346° |
| 2026-05-06 02:30 | -32.53349 | 150.60094 | 34088 ft | 447 kts | 346° |
| 2026-05-06 02:30 | -32.47176 | 150.59175 | 34095 ft | 446 kts | 346° |
| 2026-05-06 02:31 | -32.40987 | 150.58254 | 34086 ft | 446 kts | 346° |
| 2026-05-06 02:31 | -32.34802 | 150.57335 | 34086 ft | 446 kts | 346° |
| 2026-05-06 02:32 | -32.28628 | 150.56418 | 34086 ft | 445 kts | 346° |
| 2026-05-06 02:32 | -32.22502 | 150.55512 | 34080 ft | 444 kts | 345° |
| 2026-05-06 02:33 | -32.16367 | 150.54604 | 34080 ft | 442 kts | 345° |
| 2026-05-06 02:33 | -32.14334 | 150.54303 | 34084 ft | 442 kts | 345° |
| 2026-05-06 02:34 | -32.04136 | 150.52797 | 34070 ft | 443 kts | 345° |
| 2026-05-06 02:34 | -31.98018 | 150.51895 | 34079 ft | 441 kts | 345° |
| 2026-05-06 02:35 | -31.91933 | 150.51001 | 34085 ft | 440 kts | 345° |
| 2026-05-06 02:35 | -31.85813 | 150.50101 | 34097 ft | 441 kts | 345° |
| 2026-05-06 02:36 | -31.79718 | 150.49205 | 34099 ft | 441 kts | 345° |
| 2026-05-06 02:36 | -31.73619 | 150.48311 | 34105 ft | 441 kts | 345° |
| 2026-05-06 02:37 | -31.67475 | 150.47411 | 34104 ft | 442 kts | 345° |
| 2026-05-06 02:37 | -31.61375 | 150.46518 | 34099 ft | 441 kts | 345° |
| 2026-05-06 02:38 | -31.55291 | 150.45630 | 34100 ft | 443 kts | 345° |
| 2026-05-06 02:38 | -31.49154 | 150.44734 | 34100 ft | 441 kts | 345° |
| 2026-05-06 02:39 | -31.43037 | 150.43843 | 34096 ft | 442 kts | 345° |
| 2026-05-06 02:39 | -31.36959 | 150.42960 | 34096 ft | 442 kts | 345° |
| 2026-05-06 02:40 | -31.30796 | 150.42064 | 34092 ft | 441 kts | 345° |
| 2026-05-06 02:40 | -31.24688 | 150.41177 | 34091 ft | 441 kts | 345° |
| 2026-05-06 02:41 | -31.18586 | 150.40294 | 34087 ft | 442 kts | 345° |
| 2026-05-06 02:41 | -31.12466 | 150.39407 | 34083 ft | 441 kts | 345° |
| 2026-05-06 02:42 | -31.06350 | 150.38524 | 34079 ft | 441 kts | 345° |
| 2026-05-06 02:42 | -31.00256 | 150.37642 | 34081 ft | 444 kts | 345° |
| 2026-05-06 02:43 | -30.94119 | 150.36760 | 34078 ft | 441 kts | 345° |
| 2026-05-06 02:43 | -30.87968 | 150.35873 | 34086 ft | 443 kts | 345° |
| 2026-05-06 02:44 | -30.81865 | 150.34996 | 34087 ft | 441 kts | 346° |
| 2026-05-06 02:44 | -30.75708 | 150.34111 | 34103 ft | 442 kts | 346° |
| 2026-05-06 02:45 | -30.69643 | 150.33243 | 34102 ft | 441 kts | 346° |
| 2026-05-06 02:45 | -30.63482 | 150.32358 | 34102 ft | 444 kts | 346° |
| 2026-05-06 02:46 | -30.57365 | 150.31483 | 34099 ft | 442 kts | 346° |
| 2026-05-06 02:46 | -30.51243 | 150.30609 | 34099 ft | 442 kts | 346° |
| 2026-05-06 02:47 | -30.45128 | 150.29736 | 34106 ft | 442 kts | 346° |
| 2026-05-06 02:47 | -30.39026 | 150.28867 | 34105 ft | 441 kts | 346° |
| 2026-05-06 02:48 | -30.32877 | 150.27991 | 34114 ft | 442 kts | 346° |
| 2026-05-06 02:48 | -30.26803 | 150.27129 | 34118 ft | 442 kts | 346° |
| 2026-05-06 02:49 | -30.20683 | 150.26259 | 34124 ft | 441 kts | 346° |
| 2026-05-06 02:49 | -30.14585 | 150.25395 | 34122 ft | 441 kts | 346° |
| 2026-05-06 02:50 | -30.08445 | 150.24525 | 34120 ft | 441 kts | 346° |
| 2026-05-06 02:50 | -30.02353 | 150.23663 | 34117 ft | 439 kts | 346° |
| 2026-05-06 02:51 | -29.96274 | 150.22804 | 34115 ft | 440 kts | 346° |
| 2026-05-06 02:51 | -29.90158 | 150.21941 | 34112 ft | 443 kts | 346° |
| 2026-05-06 02:52 | -29.84056 | 150.21081 | 34118 ft | 440 kts | 346° |
| 2026-05-06 02:52 | -29.77953 | 150.20222 | 34116 ft | 441 kts | 346° |
| 2026-05-06 02:53 | -29.71838 | 150.19362 | 34112 ft | 441 kts | 346° |
| 2026-05-06 02:53 | -29.65739 | 150.18506 | 34105 ft | 441 kts | 346° |
| 2026-05-06 02:54 | -29.59650 | 150.17651 | 34102 ft | 441 kts | 346° |
| 2026-05-06 02:54 | -29.53545 | 150.16798 | 34097 ft | 440 kts | 346° |
| 2026-05-06 02:55 | -29.47470 | 150.15948 | 34092 ft | 439 kts | 346° |
| 2026-05-06 02:55 | -29.41392 | 150.15099 | 34092 ft | 439 kts | 346° |
| 2026-05-06 02:56 | -29.35333 | 150.14253 | 34088 ft | 440 kts | 346° |
| 2026-05-06 02:56 | -29.29243 | 150.13405 | 34086 ft | 439 kts | 346° |
| 2026-05-06 02:57 | -29.23123 | 150.12550 | 34088 ft | 442 kts | 346° |
| 2026-05-06 02:57 | -29.17047 | 150.11708 | 34082 ft | 439 kts | 346° |
| 2026-05-06 02:58 | -29.10976 | 150.10864 | 34083 ft | 440 kts | 346° |
| 2026-05-06 02:58 | -29.04879 | 150.10019 | 34078 ft | 438 kts | 346° |
| 2026-05-06 02:59 | -28.98824 | 150.09180 | 34065 ft | 439 kts | 346° |
| 2026-05-06 02:59 | -28.92704 | 150.08331 | 34076 ft | 441 kts | 346° |
| 2026-05-06 03:00 | -28.86621 | 150.07491 | 34093 ft | 439 kts | 346° |
| 2026-05-06 03:00 | -28.80536 | 150.06651 | 34073 ft | 438 kts | 346° |
| 2026-05-06 03:01 | -28.74514 | 150.05821 | 34085 ft | 440 kts | 346° |
| 2026-05-06 03:01 | -28.68352 | 150.04973 | 34073 ft | 437 kts | 345° |
| 2026-05-06 03:02 | -28.62316 | 150.04141 | 34082 ft | 441 kts | 345° |
| 2026-05-06 03:02 | -28.56222 | 150.03304 | 34076 ft | 438 kts | 345° |
| 2026-05-06 03:03 | -28.50137 | 150.02467 | 34080 ft | 441 kts | 345° |
| 2026-05-06 03:03 | -28.44031 | 150.01631 | 34099 ft | 438 kts | 345° |
| 2026-05-06 03:04 | -28.37963 | 150.00801 | 34088 ft | 439 kts | 345° |
| 2026-05-06 03:04 | -28.31875 | 149.99968 | 34094 ft | 438 kts | 345° |
| 2026-05-06 03:05 | -28.25790 | 149.99136 | 34097 ft | 439 kts | 345° |
| 2026-05-06 03:05 | -28.19742 | 149.98311 | 34088 ft | 438 kts | 345° |
| 2026-05-06 03:06 | -28.13650 | 149.97481 | 34081 ft | 439 kts | 345° |
| 2026-05-06 03:06 | -28.07567 | 149.96652 | 34081 ft | 439 kts | 345° |
| 2026-05-06 03:07 | -28.01532 | 149.95833 | 34070 ft | 436 kts | 344° |
| 2026-05-06 03:07 | -27.95454 | 149.95004 | 34074 ft | 441 kts | 344° |
| 2026-05-06 03:08 | -27.89377 | 149.94182 | 34081 ft | 438 kts | 344° |
| 2026-05-06 03:08 | -27.83269 | 149.93353 | 34082 ft | 437 kts | 344° |
| 2026-05-06 03:09 | -27.77235 | 149.92537 | 34076 ft | 438 kts | 344° |
| 2026-05-06 03:09 | -27.71167 | 149.91715 | 34077 ft | 440 kts | 344° |
| 2026-05-06 03:10 | -27.65097 | 149.90895 | 34072 ft | 438 kts | 344° |
| 2026-05-06 03:10 | -27.59012 | 149.90074 | 34079 ft | 440 kts | 344° |
| 2026-05-06 03:11 | -27.52980 | 149.89262 | 34076 ft | 437 kts | 344° |
| 2026-05-06 03:11 | -27.46872 | 149.88438 | 34069 ft | 440 kts | 344° |
| 2026-05-06 03:12 | -27.40828 | 149.87627 | 34075 ft | 439 kts | 344° |
| 2026-05-06 03:12 | -27.34735 | 149.86807 | 34068 ft | 439 kts | 343° |
| 2026-05-06 03:13 | -27.28662 | 149.85992 | 34063 ft | 440 kts | 343° |
| 2026-05-06 03:13 | -27.22578 | 149.85178 | 34070 ft | 439 kts | 343° |
| 2026-05-06 03:14 | -27.16486 | 149.84361 | 34056 ft | 438 kts | 343° |
| 2026-05-06 03:14 | -27.10432 | 149.83551 | 34066 ft | 440 kts | 343° |
| 2026-05-06 03:15 | -27.04361 | 149.82742 | 34055 ft | 438 kts | 343° |
| 2026-05-06 03:15 | -26.98320 | 149.81935 | 34060 ft | 439 kts | 343° |
| 2026-05-06 03:16 | -26.92219 | 149.81122 | 34052 ft | 438 kts | 343° |
| 2026-05-06 03:16 | -26.86147 | 149.80313 | 34066 ft | 438 kts | 343° |
| 2026-05-06 03:17 | -26.80078 | 149.79506 | 34065 ft | 438 kts | 343° |
| 2026-05-06 03:17 | -26.74035 | 149.78703 | 34063 ft | 437 kts | 343° |
| 2026-05-06 03:18 | -26.67941 | 149.77893 | 34065 ft | 440 kts | 343° |
| 2026-05-06 03:18 | -26.61837 | 149.77083 | 34070 ft | 441 kts | 343° |
| 2026-05-06 03:19 | -26.55766 | 149.76279 | 34069 ft | 439 kts | 343° |
| 2026-05-06 03:19 | -26.49670 | 149.75473 | 34067 ft | 438 kts | 343° |
| 2026-05-06 03:20 | -26.40573 | 149.74271 | 34063 ft | 439 kts | 343° |
| 2026-05-06 03:20 | -26.34478 | 149.73467 | 34061 ft | 439 kts | 343° |
| 2026-05-06 03:21 | -26.28418 | 149.72667 | 34051 ft | 442 kts | 342° |
| 2026-05-06 03:21 | -26.22303 | 149.71863 | 34055 ft | 439 kts | 343° |
| 2026-05-06 03:22 | -26.16210 | 149.71062 | 34041 ft | 439 kts | 342° |
| 2026-05-06 03:22 | -26.10125 | 149.70261 | 34035 ft | 440 kts | 342° |
| 2026-05-06 03:23 | -26.04037 | 149.69461 | 34041 ft | 441 kts | 342° |
| 2026-05-06 03:23 | -25.97917 | 149.68658 | 34031 ft | 441 kts | 342° |
| 2026-05-06 03:24 | -25.91814 | 149.67859 | 34028 ft | 442 kts | 343° |
| 2026-05-06 03:24 | -25.85671 | 149.67055 | 34038 ft | 441 kts | 342° |
| 2026-05-06 03:25 | -25.79571 | 149.66257 | 34031 ft | 442 kts | 343° |
| 2026-05-06 03:25 | -25.73454 | 149.65460 | 34028 ft | 440 kts | 342° |
| 2026-05-06 03:26 | -25.67353 | 149.64662 | 34029 ft | 444 kts | 343° |
| 2026-05-06 03:26 | -25.61199 | 149.63860 | 34036 ft | 441 kts | 343° |
| 2026-05-06 03:27 | -25.55089 | 149.63065 | 34035 ft | 445 kts | 343° |
| 2026-05-06 03:27 | -25.48936 | 149.62265 | 34025 ft | 442 kts | 343° |
| 2026-05-06 03:28 | -25.42823 | 149.61472 | 34037 ft | 440 kts | 342° |
| 2026-05-06 03:28 | -25.36690 | 149.60673 | 34028 ft | 445 kts | 343° |
| 2026-05-06 03:29 | -25.30567 | 149.59880 | 34035 ft | 444 kts | 343° |
| 2026-05-06 03:29 | -25.24426 | 149.59085 | 34027 ft | 443 kts | 343° |
| 2026-05-06 03:30 | -25.18282 | 149.58290 | 34025 ft | 443 kts | 343° |
| 2026-05-06 03:30 | -25.12120 | 149.57494 | 34025 ft | 444 kts | 343° |
| 2026-05-06 03:31 | -25.05959 | 149.56697 | 34026 ft | 445 kts | 343° |
| 2026-05-06 03:31 | -24.99815 | 149.55905 | 34024 ft | 444 kts | 343° |
| 2026-05-06 03:32 | -24.93633 | 149.55109 | 34022 ft | 444 kts | 343° |
| 2026-05-06 03:32 | -24.87489 | 149.54318 | 34031 ft | 443 kts | 343° |
| 2026-05-06 03:33 | -24.81311 | 149.53522 | 34023 ft | 444 kts | 343° |
| 2026-05-06 03:33 | -24.75215 | 149.52740 | 34017 ft | 444 kts | 343° |
| 2026-05-06 03:34 | -24.69049 | 149.51947 | 34009 ft | 445 kts | 343° |
| 2026-05-06 03:34 | -24.62897 | 149.51160 | 34005 ft | 443 kts | 343° |
| 2026-05-06 03:35 | -24.56747 | 149.50372 | 34009 ft | 443 kts | 343° |
| 2026-05-06 03:35 | -24.50629 | 149.49589 | 34005 ft | 443 kts | 343° |
| 2026-05-06 03:36 | -24.44442 | 149.48798 | 34004 ft | 444 kts | 343° |
| 2026-05-06 03:36 | -24.38311 | 149.48015 | 34008 ft | 444 kts | 343° |
| 2026-05-06 03:37 | -24.32156 | 149.47229 | 34003 ft | 443 kts | 343° |
| 2026-05-06 03:37 | -24.25999 | 149.46443 | 34003 ft | 445 kts | 343° |
| 2026-05-06 03:38 | -24.19841 | 149.45660 | 34006 ft | 444 kts | 343° |
| 2026-05-06 03:38 | -24.13709 | 149.44881 | 34006 ft | 443 kts | 343° |
| 2026-05-06 03:39 | -24.07548 | 149.44096 | 34000 ft | 445 kts | 343° |
| 2026-05-06 03:39 | -24.01384 | 149.43314 | 33995 ft | 444 kts | 343° |
| 2026-05-06 03:40 | -23.95225 | 149.42532 | 33998 ft | 446 kts | 343° |
| 2026-05-06 03:40 | -23.89064 | 149.41753 | 33999 ft | 444 kts | 343° |
| 2026-05-06 03:41 | -23.82856 | 149.40965 | 33998 ft | 446 kts | 343° |
| 2026-05-06 03:41 | -23.76700 | 149.40189 | 33997 ft | 445 kts | 343° |
| 2026-05-06 03:42 | -23.70543 | 149.39409 | 33993 ft | 446 kts | 343° |
| 2026-05-06 03:42 | -23.64374 | 149.38631 | 33988 ft | 445 kts | 343° |
| 2026-05-06 03:43 | -23.58202 | 149.37852 | 33985 ft | 447 kts | 343° |
| 2026-05-06 03:43 | -23.52021 | 149.37073 | 33982 ft | 446 kts | 343° |
| 2026-05-06 03:44 | -23.45843 | 149.36296 | 33980 ft | 446 kts | 343° |
| 2026-05-06 03:44 | -23.39625 | 149.35513 | 33982 ft | 445 kts | 343° |
| 2026-05-06 03:45 | -23.33436 | 149.34735 | 34005 ft | 448 kts | 344° |
| 2026-05-06 03:45 | -23.27225 | 149.33957 | 34000 ft | 446 kts | 344° |
| 2026-05-06 03:46 | -23.21048 | 149.33180 | 33998 ft | 448 kts | 344° |
| 2026-05-06 03:46 | -23.14869 | 149.32407 | 34000 ft | 447 kts | 344° |
| 2026-05-06 03:47 | -23.08677 | 149.31632 | 33999 ft | 447 kts | 344° |
| 2026-05-06 03:47 | -23.02487 | 149.30858 | 33996 ft | 446 kts | 344° |
| 2026-05-06 03:48 | -22.96266 | 149.30080 | 33994 ft | 448 kts | 344° |
| 2026-05-06 03:48 | -22.90055 | 149.29305 | 33991 ft | 448 kts | 344° |
| 2026-05-06 03:49 | -22.83849 | 149.28531 | 33998 ft | 448 kts | 345° |
| 2026-05-06 03:49 | -22.77643 | 149.27757 | 33993 ft | 447 kts | 345° |
| 2026-05-06 03:50 | -22.71428 | 149.26982 | 33999 ft | 449 kts | 344° |
| 2026-05-06 03:50 | -22.65227 | 149.26211 | 34006 ft | 448 kts | 345° |
| 2026-05-06 03:51 | -22.59025 | 149.25441 | 34009 ft | 447 kts | 344° |
| 2026-05-06 03:51 | -22.52803 | 149.24669 | 34010 ft | 447 kts | 344° |
| 2026-05-06 03:52 | -22.46644 | 149.23906 | 34015 ft | 447 kts | 344° |
| 2026-05-06 03:52 | -22.40440 | 149.23137 | 34016 ft | 446 kts | 344° |
| 2026-05-06 03:53 | -22.34221 | 149.22366 | 34011 ft | 447 kts | 344° |
| 2026-05-06 03:53 | -22.28025 | 149.21599 | 34013 ft | 449 kts | 344° |
| 2026-05-06 03:54 | -22.21815 | 149.20833 | 34013 ft | 447 kts | 345° |
| 2026-05-06 03:54 | -22.15649 | 149.20071 | 34016 ft | 447 kts | 344° |
| 2026-05-06 03:55 | -22.09415 | 149.19302 | 34015 ft | 448 kts | 344° |
| 2026-05-06 03:55 | -22.03232 | 149.18541 | 34015 ft | 445 kts | 344° |
| 2026-05-06 03:56 | -21.97034 | 149.17776 | 34014 ft | 448 kts | 344° |
| 2026-05-06 03:56 | -21.90850 | 149.17017 | 34009 ft | 447 kts | 345° |
| 2026-05-06 03:57 | -21.84662 | 149.16254 | 34018 ft | 449 kts | 345° |
| 2026-05-06 03:57 | -21.78421 | 149.15489 | 34016 ft | 447 kts | 345° |
| 2026-05-06 03:58 | -21.72228 | 149.14726 | 34011 ft | 450 kts | 345° |
| 2026-05-06 03:58 | -21.66014 | 149.13966 | 34011 ft | 448 kts | 345° |
| 2026-05-06 03:59 | -21.59788 | 149.13203 | 34007 ft | 447 kts | 345° |
| 2026-05-06 03:59 | -21.53570 | 149.12440 | 33997 ft | 450 kts | 345° |
| 2026-05-06 04:00 | -21.47349 | 149.11681 | 33996 ft | 447 kts | 345° |
| 2026-05-06 04:00 | -21.41143 | 149.10922 | 33990 ft | 451 kts | 345° |
| 2026-05-06 04:01 | -21.34874 | 149.10158 | 33978 ft | 447 kts | 345° |
| 2026-05-06 04:01 | -21.28654 | 149.09398 | 33974 ft | 451 kts | 345° |
| 2026-05-06 04:02 | -21.22423 | 149.08638 | 33969 ft | 449 kts | 345° |
| 2026-05-06 04:02 | -21.16210 | 149.07881 | 33972 ft | 450 kts | 345° |
| 2026-05-06 04:03 | -21.09934 | 149.07117 | 33971 ft | 452 kts | 345° |
| 2026-05-06 04:03 | -21.03676 | 149.06357 | 33971 ft | 451 kts | 345° |
| 2026-05-06 04:04 | -20.97430 | 149.05598 | 33971 ft | 451 kts | 345° |
| 2026-05-06 04:04 | -20.91183 | 149.04840 | 33968 ft | 451 kts | 345° |
| 2026-05-06 04:05 | -20.84916 | 149.04080 | 33971 ft | 450 kts | 345° |
| 2026-05-06 04:05 | -20.78653 | 149.03320 | 33968 ft | 452 kts | 345° |
| 2026-05-06 04:06 | -20.72400 | 149.02563 | 33955 ft | 452 kts | 345° |
| 2026-05-06 04:06 | -20.66134 | 149.01805 | 33952 ft | 454 kts | 346° |
| 2026-05-06 04:07 | -20.59858 | 149.01047 | 33951 ft | 452 kts | 345° |
| 2026-05-06 04:07 | -20.53565 | 149.00287 | 33952 ft | 453 kts | 346° |
| 2026-05-06 04:08 | -20.47277 | 148.99527 | 33955 ft | 454 kts | 345° |
| 2026-05-06 04:08 | -20.41003 | 148.98772 | 33958 ft | 452 kts | 345° |
| 2026-05-06 04:09 | -20.34734 | 148.98016 | 33965 ft | 453 kts | 346° |
| 2026-05-06 04:09 | -20.28439 | 148.97260 | 33960 ft | 453 kts | 346° |
| 2026-05-06 04:10 | -20.22119 | 148.96498 | 33957 ft | 454 kts | 346° |
| 2026-05-06 04:10 | -20.15867 | 148.95747 | 33956 ft | 456 kts | 346° |
| 2026-05-06 04:11 | -20.09556 | 148.94989 | 33948 ft | 454 kts | 346° |
| 2026-05-06 04:11 | -20.03252 | 148.94232 | 33948 ft | 456 kts | 346° |
| 2026-05-06 04:12 | -19.96932 | 148.93475 | 33949 ft | 455 kts | 346° |
| 2026-05-06 04:12 | -19.90681 | 148.92726 | 33946 ft | 455 kts | 346° |
| 2026-05-06 04:13 | -19.84336 | 148.91966 | 33951 ft | 456 kts | 346° |
| 2026-05-06 04:13 | -19.78022 | 148.91211 | 33950 ft | 455 kts | 346° |
| 2026-05-06 04:14 | -19.71739 | 148.90462 | 33950 ft | 455 kts | 346° |
| 2026-05-06 04:14 | -19.65405 | 148.89705 | 33948 ft | 455 kts | 346° |
| 2026-05-06 04:15 | -19.59099 | 148.88951 | 33950 ft | 457 kts | 346° |
| 2026-05-06 04:15 | -19.52796 | 148.88200 | 33947 ft | 456 kts | 346° |
| 2026-05-06 04:16 | -19.46409 | 148.87439 | 33942 ft | 458 kts | 347° |
| 2026-05-06 04:16 | -19.40117 | 148.86691 | 33937 ft | 458 kts | 346° |
| 2026-05-06 04:17 | -19.33766 | 148.85934 | 33933 ft | 458 kts | 347° |
| 2026-05-06 04:17 | -19.27415 | 148.85181 | 33932 ft | 458 kts | 347° |
| 2026-05-06 04:18 | -19.21063 | 148.84427 | 33934 ft | 459 kts | 347° |
| 2026-05-06 04:18 | -19.14678 | 148.83668 | 33928 ft | 459 kts | 347° |
| 2026-05-06 04:19 | -19.08308 | 148.82913 | 33929 ft | 459 kts | 347° |
| 2026-05-06 04:19 | -19.01938 | 148.82158 | 33927 ft | 461 kts | 347° |
| 2026-05-06 04:20 | -18.95558 | 148.81404 | 33924 ft | 459 kts | 347° |
| 2026-05-06 04:20 | -18.89223 | 148.80655 | 33925 ft | 458 kts | 347° |
| 2026-05-06 04:21 | -18.82821 | 148.79897 | 33928 ft | 462 kts | 347° |
| 2026-05-06 04:21 | -18.76441 | 148.79144 | 33928 ft | 461 kts | 347° |
| 2026-05-06 04:22 | -18.70071 | 148.78392 | 33928 ft | 461 kts | 347° |
| 2026-05-06 04:23 | -18.60477 | 148.77261 | 33927 ft | 460 kts | 347° |
| 2026-05-06 04:23 | -18.54109 | 148.76512 | 33926 ft | 459 kts | 347° |
| 2026-05-06 04:24 | -18.47750 | 148.75763 | 33926 ft | 459 kts | 347° |
| 2026-05-06 04:24 | -18.41368 | 148.75012 | 33925 ft | 460 kts | 347° |
| 2026-05-06 04:25 | -18.35016 | 148.74266 | 33926 ft | 460 kts | 347° |
| 2026-05-06 04:25 | -18.28645 | 148.73517 | 33926 ft | 462 kts | 347° |
| 2026-05-06 04:26 | -18.22237 | 148.72766 | 33925 ft | 460 kts | 347° |
| 2026-05-06 04:26 | -18.15867 | 148.72018 | 33923 ft | 459 kts | 347° |
| 2026-05-06 04:27 | -18.09506 | 148.71274 | 33925 ft | 461 kts | 348° |
| 2026-05-06 04:27 | -18.03132 | 148.70528 | 33924 ft | 460 kts | 348° |
| 2026-05-06 04:28 | -17.96712 | 148.69775 | 33924 ft | 463 kts | 348° |
| 2026-05-06 04:28 | -17.90318 | 148.69028 | 33922 ft | 461 kts | 348° |
| 2026-05-06 04:29 | -17.83935 | 148.68283 | 33926 ft | 461 kts | 348° |
| 2026-05-06 04:29 | -17.77568 | 148.67539 | 33927 ft | 461 kts | 348° |
| 2026-05-06 04:30 | -17.71185 | 148.66795 | 33922 ft | 461 kts | 348° |
| 2026-05-06 04:30 | -17.64788 | 148.66049 | 33923 ft | 462 kts | 348° |
| 2026-05-06 04:31 | -17.58374 | 148.65302 | 33919 ft | 461 kts | 348° |
| 2026-05-06 04:31 | -17.51969 | 148.64555 | 33915 ft | 462 kts | 348° |
| 2026-05-06 04:32 | -17.45591 | 148.63814 | 33915 ft | 461 kts | 348° |
| 2026-05-06 04:32 | -17.39232 | 148.63075 | 33910 ft | 462 kts | 348° |
| 2026-05-06 04:33 | -17.32815 | 148.62329 | 33911 ft | 462 kts | 348° |
| 2026-05-06 04:33 | -17.26435 | 148.61589 | 33910 ft | 461 kts | 348° |
| 2026-05-06 04:34 | -17.20009 | 148.60843 | 33910 ft | 462 kts | 348° |
| 2026-05-06 04:34 | -17.13639 | 148.60106 | 33903 ft | 461 kts | 349° |
| 2026-05-06 04:35 | -17.07262 | 148.59366 | 33902 ft | 462 kts | 349° |
| 2026-05-06 04:35 | -17.00846 | 148.58624 | 33900 ft | 462 kts | 349° |
| 2026-05-06 04:36 | -16.94432 | 148.57881 | 33901 ft | 462 kts | 349° |
| 2026-05-06 04:36 | -16.88052 | 148.57144 | 33906 ft | 461 kts | 349° |
| 2026-05-06 04:37 | -16.81655 | 148.56406 | 33905 ft | 461 kts | 349° |
| 2026-05-06 04:37 | -16.75267 | 148.55669 | 33907 ft | 461 kts | 349° |
| 2026-05-06 04:38 | -16.68875 | 148.54930 | 33905 ft | 462 kts | 349° |
| 2026-05-06 04:38 | -16.62479 | 148.54193 | 33905 ft | 462 kts | 349° |
| 2026-05-06 04:39 | -16.56050 | 148.53453 | 33904 ft | 462 kts | 349° |
| 2026-05-06 04:39 | -16.49650 | 148.52716 | 33905 ft | 462 kts | 349° |
| 2026-05-06 04:40 | -16.43283 | 148.51984 | 33905 ft | 460 kts | 349° |
| 2026-05-06 04:40 | -16.36879 | 148.51247 | 33907 ft | 461 kts | 349° |
| 2026-05-06 04:41 | -16.30469 | 148.50510 | 33906 ft | 461 kts | 349° |
| 2026-05-06 04:41 | -16.24076 | 148.49776 | 33896 ft | 461 kts | 349° |
| 2026-05-06 04:42 | -16.17718 | 148.49046 | 33898 ft | 461 kts | 349° |
| 2026-05-06 04:42 | -16.11326 | 148.48314 | 33896 ft | 461 kts | 349° |
| 2026-05-06 04:43 | -16.04939 | 148.47582 | 33892 ft | 461 kts | 349° |
| 2026-05-06 04:43 | -15.98514 | 148.46846 | 33894 ft | 462 kts | 349° |
| 2026-05-06 04:44 | -15.92147 | 148.46117 | 33889 ft | 461 kts | 349° |
| 2026-05-06 04:44 | -15.85735 | 148.45384 | 33895 ft | 462 kts | 349° |
| 2026-05-06 04:45 | -15.79335 | 148.44652 | 33896 ft | 462 kts | 350° |
| 2026-05-06 04:45 | -15.72907 | 148.43918 | 33893 ft | 463 kts | 350° |
| 2026-05-06 04:46 | -15.66521 | 148.43188 | 33892 ft | 462 kts | 350° |
| 2026-05-06 04:46 | -15.60100 | 148.42456 | 33890 ft | 462 kts | 350° |
| 2026-05-06 04:47 | -15.53670 | 148.41722 | 33892 ft | 464 kts | 350° |
| 2026-05-06 04:47 | -15.47269 | 148.40994 | 33893 ft | 463 kts | 350° |
| 2026-05-06 04:48 | -15.40822 | 148.40259 | 33892 ft | 464 kts | 350° |
| 2026-05-06 04:48 | -15.34410 | 148.39529 | 33891 ft | 464 kts | 350° |
| 2026-05-06 04:49 | -15.27968 | 148.38797 | 33893 ft | 465 kts | 350° |
| 2026-05-06 04:49 | -15.21522 | 148.38065 | 33895 ft | 463 kts | 350° |
| 2026-05-06 04:50 | -15.15088 | 148.37334 | 33891 ft | 465 kts | 350° |
| 2026-05-06 04:50 | -15.08633 | 148.36601 | 33885 ft | 464 kts | 350° |
| 2026-05-06 04:51 | -15.02172 | 148.35867 | 33887 ft | 467 kts | 350° |
| 2026-05-06 04:51 | -14.95732 | 148.35136 | 33885 ft | 467 kts | 350° |
| 2026-05-06 04:52 | -14.89228 | 148.34399 | 33890 ft | 467 kts | 351° |
| 2026-05-06 04:52 | -14.82770 | 148.33668 | 33890 ft | 466 kts | 351° |
| 2026-05-06 04:53 | -14.76310 | 148.32938 | 33889 ft | 467 kts | 351° |
| 2026-05-06 04:53 | -14.69867 | 148.32208 | 33886 ft | 466 kts | 351° |
| 2026-05-06 04:54 | -14.63375 | 148.31474 | 33888 ft | 467 kts | 351° |
| 2026-05-06 04:54 | -14.56912 | 148.30745 | 33888 ft | 467 kts | 351° |
| 2026-05-06 04:55 | -14.50433 | 148.30013 | 33891 ft | 467 kts | 351° |
| 2026-05-06 04:55 | -14.43937 | 148.29280 | 33891 ft | 468 kts | 351° |
| 2026-05-06 04:56 | -14.37462 | 148.28549 | 33891 ft | 468 kts | 351° |
| 2026-05-06 04:56 | -14.30997 | 148.27821 | 33891 ft | 468 kts | 351° |
| 2026-05-06 04:57 | -14.24516 | 148.27090 | 33891 ft | 469 kts | 351° |
| 2026-05-06 04:57 | -14.18006 | 148.26358 | 33890 ft | 468 kts | 351° |
| 2026-05-06 04:58 | -14.11507 | 148.25627 | 33890 ft | 470 kts | 351° |
| 2026-05-06 04:58 | -14.05006 | 148.24896 | 33889 ft | 469 kts | 351° |
| 2026-05-06 04:59 | -13.98528 | 148.24168 | 33887 ft | 469 kts | 351° |
| 2026-05-06 04:59 | -13.92014 | 148.23436 | 33887 ft | 469 kts | 351° |
| 2026-05-06 05:00 | -13.85493 | 148.22704 | 33886 ft | 469 kts | 351° |
| 2026-05-06 05:00 | -13.79001 | 148.21976 | 33886 ft | 468 kts | 351° |
| 2026-05-06 05:01 | -13.72498 | 148.21246 | 33877 ft | 470 kts | 351° |
| 2026-05-06 05:01 | -13.66014 | 148.20520 | 33871 ft | 469 kts | 351° |
| 2026-05-06 05:02 | -13.59498 | 148.19791 | 33869 ft | 468 kts | 351° |
| 2026-05-06 05:02 | -13.53002 | 148.19063 | 33870 ft | 469 kts | 351° |
| 2026-05-06 05:03 | -13.46499 | 148.18335 | 33869 ft | 469 kts | 351° |
| 2026-05-06 05:03 | -13.39962 | 148.17604 | 33869 ft | 469 kts | 351° |
| 2026-05-06 05:04 | -13.33455 | 148.16876 | 33868 ft | 470 kts | 351° |
| 2026-05-06 05:04 | -13.26954 | 148.16150 | 33869 ft | 471 kts | 351° |
| 2026-05-06 05:05 | -13.20435 | 148.15424 | 33868 ft | 470 kts | 351° |
| 2026-05-06 05:05 | -13.13925 | 148.14697 | 33868 ft | 470 kts | 351° |
| 2026-05-06 05:06 | -13.07408 | 148.13969 | 33867 ft | 469 kts | 351° |
| 2026-05-06 05:06 | -13.00878 | 148.13242 | 33866 ft | 469 kts | 351° |
| 2026-05-06 05:07 | -12.94336 | 148.12514 | 33863 ft | 470 kts | 351° |
| 2026-05-06 05:07 | -12.87843 | 148.11791 | 33866 ft | 471 kts | 351° |
| 2026-05-06 05:08 | -12.81286 | 148.11061 | 33867 ft | 471 kts | 351° |
| 2026-05-06 05:08 | -12.74756 | 148.10335 | 33863 ft | 470 kts | 351° |
| 2026-05-06 05:09 | -12.68267 | 148.09613 | 33863 ft | 471 kts | 351° |
| 2026-05-06 05:09 | -12.61728 | 148.08887 | 33861 ft | 470 kts | 351° |
| 2026-05-06 05:10 | -12.55186 | 148.08160 | 33859 ft | 472 kts | 351° |
| 2026-05-06 05:10 | -12.48631 | 148.07433 | 33855 ft | 472 kts | 351° |
| 2026-05-06 05:11 | -12.42080 | 148.06706 | 33853 ft | 472 kts | 351° |
| 2026-05-06 05:11 | -12.35576 | 148.05984 | 33846 ft | 471 kts | 352° |
| 2026-05-06 05:12 | -12.29040 | 148.05261 | 33846 ft | 471 kts | 352° |
| 2026-05-06 05:12 | -12.22492 | 148.04535 | 33847 ft | 472 kts | 352° |
| 2026-05-06 05:13 | -12.15906 | 148.03806 | 33845 ft | 473 kts | 352° |
| 2026-05-06 05:13 | -12.09379 | 148.03084 | 33845 ft | 473 kts | 352° |
| 2026-05-06 05:14 | -12.02810 | 148.02357 | 33846 ft | 472 kts | 352° |
| 2026-05-06 05:14 | -11.96404 | 148.00944 | 33849 ft | 469 kts | 341° |
| 2026-05-06 05:15 | -11.90197 | 147.98947 | 33845 ft | 469 kts | 341° |
| 2026-05-06 05:15 | -11.83931 | 147.96936 | 33848 ft | 470 kts | 341° |
| 2026-05-06 05:16 | -11.77661 | 147.94931 | 33843 ft | 470 kts | 341° |
| 2026-05-06 05:16 | -11.71424 | 147.92940 | 33843 ft | 470 kts | 341° |
| 2026-05-06 05:17 | -11.65151 | 147.90941 | 33842 ft | 470 kts | 341° |
| 2026-05-06 05:17 | -11.58898 | 147.88950 | 33838 ft | 470 kts | 341° |
| 2026-05-06 05:18 | -11.52644 | 147.86960 | 33837 ft | 470 kts | 341° |
| 2026-05-06 05:18 | -11.46382 | 147.84967 | 33837 ft | 472 kts | 341° |
| 2026-05-06 05:19 | -11.40105 | 147.82973 | 33837 ft | 469 kts | 341° |
| 2026-05-06 05:19 | -11.33849 | 147.80984 | 33839 ft | 471 kts | 341° |
| 2026-05-06 05:20 | -11.27611 | 147.79004 | 33838 ft | 471 kts | 341° |
| 2026-05-06 05:20 | -11.21306 | 147.77004 | 33833 ft | 471 kts | 341° |
| 2026-05-06 05:21 | -11.15055 | 147.75020 | 33833 ft | 472 kts | 341° |
| 2026-05-06 05:21 | -11.08777 | 147.73029 | 33828 ft | 472 kts | 341° |
| 2026-05-06 05:22 | -11.02485 | 147.71034 | 33834 ft | 472 kts | 341° |
| 2026-05-06 05:22 | -10.96209 | 147.69046 | 33843 ft | 472 kts | 341° |
| 2026-05-06 05:23 | -10.89934 | 147.67059 | 33839 ft | 471 kts | 341° |
| 2026-05-06 05:23 | -10.80530 | 147.64082 | 33834 ft | 471 kts | 341° |
| 2026-05-06 05:24 | -10.74262 | 147.62100 | 33827 ft | 472 kts | 341° |
| 2026-05-06 05:24 | -10.67952 | 147.60106 | 33820 ft | 472 kts | 341° |
| 2026-05-06 05:25 | -10.61671 | 147.58121 | 33820 ft | 472 kts | 341° |
| 2026-05-06 05:25 | -10.55396 | 147.56137 | 33824 ft | 471 kts | 341° |
| 2026-05-06 05:26 | -10.49127 | 147.54158 | 33821 ft | 471 kts | 341° |
| 2026-05-06 05:26 | -10.42840 | 147.52173 | 33821 ft | 472 kts | 341° |
| 2026-05-06 05:27 | -10.36547 | 147.50188 | 33821 ft | 472 kts | 341° |
| 2026-05-06 05:27 | -10.30265 | 147.48207 | 33817 ft | 472 kts | 341° |
| 2026-05-06 05:28 | -10.23989 | 147.46228 | 33816 ft | 471 kts | 341° |
| 2026-05-06 05:28 | -10.17697 | 147.44246 | 33812 ft | 472 kts | 342° |
| 2026-05-06 05:29 | -10.11419 | 147.42268 | 33806 ft | 472 kts | 342° |
| 2026-05-06 05:29 | -10.05120 | 147.40285 | 33805 ft | 473 kts | 342° |
| 2026-05-06 05:30 | -9.98845 | 147.38310 | 33803 ft | 473 kts | 342° |
| 2026-05-06 05:30 | -9.92540 | 147.36327 | 33805 ft | 472 kts | 342° |
| 2026-05-06 05:31 | -9.86220 | 147.34338 | 33811 ft | 472 kts | 342° |
| 2026-05-06 05:31 | -9.79934 | 147.32362 | 33813 ft | 472 kts | 342° |
| 2026-05-06 05:32 | -9.73627 | 147.30380 | 33813 ft | 472 kts | 342° |
| 2026-05-06 05:32 | -9.67330 | 147.28403 | 33815 ft | 472 kts | 342° |
| 2026-05-06 05:33 | -9.61047 | 147.26430 | 33810 ft | 473 kts | 342° |
| 2026-05-06 05:33 | -9.54768 | 147.24460 | 33808 ft | 472 kts | 342° |
| 2026-05-06 05:34 | -9.48490 | 147.22490 | 33803 ft | 473 kts | 342° |
| 2026-05-06 05:34 | -9.42092 | 147.20917 | 33823 ft | 472 kts | 349° |
| 2026-05-06 05:35 | -9.35601 | 147.19772 | 33830 ft | 473 kts | 349° |
| 2026-05-06 05:35 | -9.29080 | 147.18625 | 33841 ft | 472 kts | 349° |
| 2026-05-06 05:36 | -9.22598 | 147.17482 | 33845 ft | 473 kts | 349° |
| 2026-05-06 05:36 | -9.16080 | 147.16333 | 33840 ft | 473 kts | 349° |
| 2026-05-06 05:37 | -9.09578 | 147.15186 | 33852 ft | 471 kts | 349° |
| 2026-05-06 05:37 | -9.03106 | 147.14046 | 33846 ft | 472 kts | 349° |
| 2026-05-06 05:38 | -8.96600 | 147.12898 | 33850 ft | 470 kts | 349° |
| 2026-05-06 05:38 | -8.90148 | 147.11762 | 33888 ft | 471 kts | 349° |
| 2026-05-06 05:39 | -8.83685 | 147.10623 | 33924 ft | 470 kts | 349° |
| 2026-05-06 05:39 | -8.77189 | 147.09479 | 33998 ft | 471 kts | 349° |
| 2026-05-06 05:40 | -8.70719 | 147.08340 | 33998 ft | 471 kts | 349° |
| 2026-05-06 05:40 | -8.64245 | 147.07201 | 34022 ft | 469 kts | 349° |
| 2026-05-06 05:41 | -8.57760 | 147.06061 | 34039 ft | 470 kts | 349° |
| 2026-05-06 05:41 | -8.51282 | 147.04921 | 34064 ft | 470 kts | 349° |
| 2026-05-06 05:42 | -8.44843 | 147.03789 | 34133 ft | 470 kts | 349° |
| 2026-05-06 05:42 | -8.38347 | 147.02647 | 34141 ft | 470 kts | 349° |
| 2026-05-06 05:43 | -8.31897 | 147.01515 | 34195 ft | 470 kts | 349° |
| 2026-05-06 05:43 | -8.25402 | 147.00374 | 34246 ft | 471 kts | 349° |
| 2026-05-06 05:44 | -8.18908 | 146.99234 | 34298 ft | 469 kts | 349° |
| 2026-05-06 05:44 | -8.12452 | 146.98100 | 34305 ft | 469 kts | 349° |
| 2026-05-06 05:45 | -8.05994 | 146.96968 | 34325 ft | 470 kts | 349° |
| 2026-05-06 05:45 | -7.99519 | 146.95833 | 34316 ft | 470 kts | 349° |
| 2026-05-06 05:46 | -7.93077 | 146.94702 | 34316 ft | 471 kts | 349° |
| 2026-05-06 05:46 | -7.86568 | 146.93562 | 34234 ft | 470 kts | 349° |
| 2026-05-06 05:47 | -7.80091 | 146.92427 | 34204 ft | 472 kts | 349° |
| 2026-05-06 05:47 | -7.73580 | 146.91286 | 34176 ft | 471 kts | 349° |
| 2026-05-06 05:48 | -7.67128 | 146.90157 | 34187 ft | 470 kts | 349° |
| 2026-05-06 05:48 | -7.60660 | 146.89024 | 34232 ft | 471 kts | 349° |
| 2026-05-06 05:49 | -7.54137 | 146.87883 | 34217 ft | 471 kts | 349° |
| 2026-05-06 05:49 | -7.47685 | 146.86754 | 34221 ft | 471 kts | 349° |
| 2026-05-06 05:50 | -7.41212 | 146.85622 | 34189 ft | 471 kts | 349° |
| 2026-05-06 05:50 | -7.34709 | 146.84485 | 34140 ft | 471 kts | 349° |
| 2026-05-06 05:51 | -7.28212 | 146.83350 | 34084 ft | 472 kts | 349° |
| 2026-05-06 05:51 | -7.21739 | 146.82219 | 34081 ft | 472 kts | 349° |
| 2026-05-06 05:52 | -7.15225 | 146.81081 | 34072 ft | 473 kts | 349° |
| 2026-05-06 05:52 | -7.08717 | 146.79944 | 34090 ft | 472 kts | 349° |
| 2026-05-06 05:53 | -7.02224 | 146.78810 | 34113 ft | 472 kts | 349° |
| 2026-05-06 05:53 | -6.95742 | 146.77679 | 34117 ft | 471 kts | 349° |
| 2026-05-06 05:54 | -6.89230 | 146.76543 | 34068 ft | 473 kts | 349° |
| 2026-05-06 05:54 | -6.82713 | 146.75406 | 34024 ft | 473 kts | 349° |
| 2026-05-06 05:55 | -6.76220 | 146.74274 | 33972 ft | 474 kts | 349° |
| 2026-05-06 05:55 | -6.69704 | 146.73138 | 33939 ft | 473 kts | 349° |
| 2026-05-06 05:56 | -6.63188 | 146.72002 | 33923 ft | 473 kts | 349° |
| 2026-05-06 05:56 | -6.56654 | 146.70863 | 33928 ft | 473 kts | 349° |
| 2026-05-06 05:57 | -6.50067 | 146.70187 | 33906 ft | 473 kts | 355° |
| 2026-05-06 05:57 | -6.43497 | 146.69669 | 33967 ft | 474 kts | 354° |
| 2026-05-06 05:58 | -6.36861 | 146.69121 | 34035 ft | 475 kts | 354° |
| 2026-05-06 05:58 | -6.30267 | 146.68564 | 34111 ft | 474 kts | 354° |
| 2026-05-06 05:59 | -6.23692 | 146.67999 | 34190 ft | 474 kts | 354° |
| 2026-05-06 05:59 | -6.17099 | 146.67430 | 34154 ft | 474 kts | 354° |
| 2026-05-06 06:00 | -6.10506 | 146.66859 | 34124 ft | 473 kts | 354° |
| 2026-05-06 06:00 | -6.03882 | 146.66284 | 34099 ft | 475 kts | 354° |
| 2026-05-06 06:01 | -5.97276 | 146.65710 | 34072 ft | 476 kts | 354° |
| 2026-05-06 06:01 | -5.90646 | 146.65135 | 34020 ft | 475 kts | 354° |
| 2026-05-06 06:02 | -5.84034 | 146.64560 | 33968 ft | 474 kts | 354° |
| 2026-05-06 06:02 | -5.77451 | 146.63989 | 33921 ft | 475 kts | 354° |
| 2026-05-06 06:03 | -5.70849 | 146.63415 | 33873 ft | 473 kts | 354° |
| 2026-05-06 06:03 | -5.64258 | 146.62843 | 33863 ft | 474 kts | 355° |
| 2026-05-06 06:04 | -5.57622 | 146.62267 | 33849 ft | 475 kts | 355° |
| 2026-05-06 06:04 | -5.51044 | 146.61696 | 33823 ft | 474 kts | 355° |
| 2026-05-06 06:05 | -5.44452 | 146.61124 | 33805 ft | 474 kts | 355° |
| 2026-05-06 06:05 | -5.37896 | 146.60555 | 33808 ft | 474 kts | 355° |
| 2026-05-06 06:06 | -5.31278 | 146.59981 | 33805 ft | 474 kts | 355° |
| 2026-05-06 06:06 | -5.24704 | 146.59412 | 33797 ft | 473 kts | 355° |
| 2026-05-06 06:07 | -5.18118 | 146.58839 | 33794 ft | 473 kts | 355° |
| 2026-05-06 06:07 | -5.11550 | 146.58270 | 33783 ft | 474 kts | 355° |
| 2026-05-06 06:08 | -5.04933 | 146.57697 | 33773 ft | 475 kts | 356° |
| 2026-05-06 06:08 | -4.98326 | 146.57124 | 33763 ft | 475 kts | 356° |
| 2026-05-06 06:09 | -4.91749 | 146.56555 | 33763 ft | 475 kts | 356° |
| 2026-05-06 06:09 | -4.85142 | 146.55983 | 33766 ft | 474 kts | 356° |
| 2026-05-06 06:10 | -4.78557 | 146.55412 | 33767 ft | 474 kts | 356° |
| 2026-05-06 06:10 | -4.71935 | 146.54839 | 33762 ft | 474 kts | 356° |
| 2026-05-06 06:11 | -4.65359 | 146.54269 | 33767 ft | 473 kts | 356° |
| 2026-05-06 06:11 | -4.58778 | 146.53700 | 33767 ft | 474 kts | 356° |
| 2026-05-06 06:12 | -4.52203 | 146.53131 | 33768 ft | 474 kts | 356° |
| 2026-05-06 06:12 | -4.45578 | 146.52557 | 33772 ft | 474 kts | 356° |
| 2026-05-06 06:13 | -4.39019 | 146.51990 | 33776 ft | 474 kts | 356° |
| 2026-05-06 06:13 | -4.32416 | 146.51419 | 33777 ft | 473 kts | 356° |
| 2026-05-06 06:14 | -4.25846 | 146.50851 | 33782 ft | 473 kts | 356° |
| 2026-05-06 06:14 | -4.19287 | 146.50284 | 33784 ft | 473 kts | 356° |
| 2026-05-06 06:15 | -4.12705 | 146.49715 | 33783 ft | 473 kts | 356° |
| 2026-05-06 06:15 | -4.06088 | 146.49144 | 33784 ft | 473 kts | 356° |
| 2026-05-06 06:16 | -3.99545 | 146.48578 | 33786 ft | 472 kts | 356° |
| 2026-05-06 06:16 | -3.92966 | 146.48010 | 33785 ft | 473 kts | 357° |
| 2026-05-06 06:17 | -3.86373 | 146.47440 | 33789 ft | 473 kts | 356° |
| 2026-05-06 06:17 | -3.79838 | 146.46875 | 33789 ft | 473 kts | 357° |
| 2026-05-06 06:18 | -3.73233 | 146.46306 | 33789 ft | 474 kts | 357° |
| 2026-05-06 06:18 | -3.66662 | 146.45738 | 33788 ft | 473 kts | 357° |
| 2026-05-06 06:19 | -3.60079 | 146.45169 | 33788 ft | 474 kts | 357° |
| 2026-05-06 06:19 | -3.53466 | 146.44598 | 33788 ft | 473 kts | 357° |
| 2026-05-06 06:20 | -3.46889 | 146.44031 | 33788 ft | 473 kts | 357° |
| 2026-05-06 06:20 | -3.40317 | 146.43463 | 33783 ft | 474 kts | 357° |
| 2026-05-06 06:21 | -3.33747 | 146.42897 | 33775 ft | 473 kts | 357° |
| 2026-05-06 06:21 | -3.27169 | 146.42329 | 33770 ft | 474 kts | 357° |
| 2026-05-06 06:22 | -3.20571 | 146.41760 | 33767 ft | 474 kts | 357° |
| 2026-05-06 06:22 | -3.13986 | 146.41193 | 33766 ft | 473 kts | 357° |
| 2026-05-06 06:23 | -3.07377 | 146.40622 | 33766 ft | 473 kts | 357° |
| 2026-05-06 06:23 | -3.00828 | 146.40057 | 33770 ft | 474 kts | 357° |
| 2026-05-06 06:24 | -2.94197 | 146.39487 | 33776 ft | 474 kts | 357° |
| 2026-05-06 06:24 | -2.87603 | 146.38917 | 33783 ft | 474 kts | 357° |
| 2026-05-06 06:25 | -2.81023 | 146.38350 | 33781 ft | 473 kts | 357° |
| 2026-05-06 06:26 | -2.71168 | 146.37501 | 33786 ft | 472 kts | 357° |
| 2026-05-06 06:26 | -2.64604 | 146.36935 | 33789 ft | 471 kts | 357° |
| 2026-05-06 06:27 | -2.58043 | 146.36369 | 33789 ft | 473 kts | 357° |
| 2026-05-06 06:27 | -2.51489 | 146.35805 | 33789 ft | 472 kts | 357° |
| 2026-05-06 06:28 | -2.44895 | 146.35237 | 33789 ft | 472 kts | 357° |
| 2026-05-06 06:28 | -2.38339 | 146.34672 | 33783 ft | 471 kts | 357° |
| 2026-05-06 06:29 | -2.31777 | 146.34106 | 33783 ft | 470 kts | 357° |
| 2026-05-06 06:29 | -2.25238 | 146.33545 | 33783 ft | 471 kts | 356° |
| 2026-05-06 06:30 | -2.18676 | 146.32979 | 33783 ft | 471 kts | 356° |
| 2026-05-06 06:30 | -2.12124 | 146.32414 | 33783 ft | 471 kts | 356° |
| 2026-05-06 06:31 | -2.05553 | 146.31850 | 33783 ft | 470 kts | 356° |
| 2026-05-06 06:31 | -1.99037 | 146.31288 | 33783 ft | 471 kts | 356° |
| 2026-05-06 06:32 | -1.92470 | 146.30722 | 33783 ft | 471 kts | 356° |
| 2026-05-06 06:32 | -1.85907 | 146.30158 | 33787 ft | 472 kts | 356° |
| 2026-05-06 06:33 | -1.79351 | 146.29593 | 33789 ft | 470 kts | 357° |
| 2026-05-06 06:33 | -1.72803 | 146.29030 | 33789 ft | 472 kts | 356° |
| 2026-05-06 06:34 | -1.66260 | 146.28467 | 33779 ft | 469 kts | 357° |
| 2026-05-06 06:34 | -1.59771 | 146.27908 | 33771 ft | 469 kts | 357° |
| 2026-05-06 06:35 | -1.53208 | 146.27344 | 33768 ft | 470 kts | 356° |
| 2026-05-06 06:35 | -1.46700 | 146.26784 | 33766 ft | 470 kts | 357° |
| 2026-05-06 06:36 | -1.40152 | 146.26221 | 33768 ft | 469 kts | 357° |
| 2026-05-06 06:36 | -1.33616 | 146.25658 | 33771 ft | 471 kts | 357° |
| 2026-05-06 06:37 | -1.27101 | 146.25098 | 33776 ft | 469 kts | 357° |
| 2026-05-06 06:37 | -1.20592 | 146.24538 | 33783 ft | 468 kts | 357° |
| 2026-05-06 06:38 | -1.14062 | 146.23976 | 33782 ft | 471 kts | 357° |
| 2026-05-06 06:38 | -1.07533 | 146.23415 | 33783 ft | 469 kts | 357° |
| 2026-05-06 06:39 | -1.01016 | 146.22853 | 33782 ft | 469 kts | 357° |
| 2026-05-06 06:39 | -0.94489 | 146.22292 | 33782 ft | 471 kts | 357° |
| 2026-05-06 06:40 | -0.87928 | 146.21729 | 33787 ft | 469 kts | 357° |
| 2026-05-06 06:40 | -0.81398 | 146.21166 | 33786 ft | 469 kts | 357° |
| 2026-05-06 06:41 | -0.74900 | 146.20607 | 33787 ft | 469 kts | 357° |
| 2026-05-06 06:41 | -0.68343 | 146.20044 | 33786 ft | 469 kts | 357° |
| 2026-05-06 06:42 | -0.61825 | 146.19482 | 33787 ft | 470 kts | 357° |
| 2026-05-06 06:42 | -0.55300 | 146.18922 | 33784 ft | 469 kts | 357° |
| 2026-05-06 06:43 | -0.48761 | 146.18359 | 33784 ft | 470 kts | 357° |
| 2026-05-06 06:43 | -0.42226 | 146.17798 | 33785 ft | 469 kts | 357° |
| 2026-05-06 06:44 | -0.35690 | 146.17235 | 33784 ft | 470 kts | 357° |
| 2026-05-06 06:44 | -0.29178 | 146.16675 | 33784 ft | 470 kts | 357° |
| 2026-05-06 06:45 | -0.22652 | 146.16115 | 33783 ft | 471 kts | 357° |
| 2026-05-06 06:45 | -0.16084 | 146.15550 | 33784 ft | 470 kts | 357° |
| 2026-05-06 06:46 | -0.09552 | 146.14987 | 33783 ft | 470 kts | 357° |
| 2026-05-06 06:46 | -0.02989 | 146.14424 | 33784 ft | 471 kts | 357° |
| 2026-05-06 06:47 | 0.03561 | 146.13858 | 33774 ft | 471 kts | 357° |
| 2026-05-06 06:47 | 0.10103 | 146.13290 | 33768 ft | 472 kts | 357° |
| 2026-05-06 06:48 | 0.16671 | 146.12720 | 33780 ft | 471 kts | 357° |
| 2026-05-06 06:48 | 0.23225 | 146.12152 | 33785 ft | 471 kts | 357° |
| 2026-05-06 06:49 | 0.29758 | 146.11585 | 33786 ft | 471 kts | 357° |
| 2026-05-06 06:49 | 0.36325 | 146.11014 | 33785 ft | 471 kts | 357° |
| 2026-05-06 06:50 | 0.42886 | 146.10445 | 33785 ft | 472 kts | 357° |
| 2026-05-06 06:50 | 0.49416 | 146.09878 | 33784 ft | 472 kts | 357° |
| 2026-05-06 06:51 | 0.56009 | 146.09306 | 33785 ft | 471 kts | 357° |
| 2026-05-06 06:51 | 0.62533 | 146.08740 | 33784 ft | 471 kts | 357° |
| 2026-05-06 06:52 | 0.69119 | 146.08168 | 33784 ft | 473 kts | 357° |
| 2026-05-06 06:52 | 0.75691 | 146.07597 | 33784 ft | 474 kts | 357° |
| 2026-05-06 06:53 | 0.82304 | 146.07024 | 33783 ft | 472 kts | 357° |
| 2026-05-06 06:53 | 0.88857 | 146.06456 | 33784 ft | 473 kts | 357° |
| 2026-05-06 06:54 | 0.95276 | 146.05898 | 33784 ft | 473 kts | 356° |
| 2026-05-06 06:54 | 1.01848 | 146.05327 | 33784 ft | 473 kts | 356° |
| 2026-05-06 06:55 | 1.08425 | 146.04756 | 33784 ft | 475 kts | 356° |
| 2026-05-06 06:55 | 1.15067 | 146.04179 | 33788 ft | 476 kts | 356° |
| 2026-05-06 06:56 | 1.21661 | 146.03607 | 33787 ft | 474 kts | 356° |
| 2026-05-06 06:56 | 1.28249 | 146.03035 | 33787 ft | 474 kts | 356° |
| 2026-05-06 06:57 | 1.34845 | 146.02463 | 33786 ft | 475 kts | 356° |
| 2026-05-06 06:57 | 1.41451 | 146.01889 | 33787 ft | 476 kts | 356° |
| 2026-05-06 06:58 | 1.48097 | 146.01312 | 33786 ft | 477 kts | 356° |
| 2026-05-06 06:58 | 1.54711 | 146.00738 | 33786 ft | 477 kts | 356° |
| 2026-05-06 06:59 | 1.61348 | 146.00162 | 33782 ft | 476 kts | 356° |
| 2026-05-06 06:59 | 1.67946 | 145.99588 | 33776 ft | 477 kts | 356° |
| 2026-05-06 07:00 | 1.74605 | 145.99010 | 33768 ft | 477 kts | 356° |
| 2026-05-06 07:00 | 1.81222 | 145.98436 | 33771 ft | 478 kts | 356° |
| 2026-05-06 07:01 | 1.87890 | 145.97856 | 33777 ft | 478 kts | 356° |
| 2026-05-06 07:01 | 1.94525 | 145.97279 | 33784 ft | 479 kts | 356° |
| 2026-05-06 07:02 | 2.01202 | 145.96699 | 33783 ft | 479 kts | 356° |
| 2026-05-06 07:02 | 2.07820 | 145.96124 | 33781 ft | 477 kts | 356° |
| 2026-05-06 07:03 | 2.14473 | 145.95546 | 33785 ft | 478 kts | 356° |
| 2026-05-06 07:03 | 2.21100 | 145.94971 | 33785 ft | 477 kts | 356° |
| 2026-05-06 07:04 | 2.27730 | 145.94394 | 33787 ft | 478 kts | 356° |
| 2026-05-06 07:04 | 2.34400 | 145.93814 | 33785 ft | 478 kts | 357° |
| 2026-05-06 07:05 | 2.41018 | 145.93239 | 33786 ft | 477 kts | 356° |
| 2026-05-06 07:05 | 2.47654 | 145.92662 | 33786 ft | 476 kts | 357° |
| 2026-05-06 07:06 | 2.54255 | 145.92088 | 33785 ft | 476 kts | 356° |
| 2026-05-06 07:06 | 2.60858 | 145.91515 | 33786 ft | 475 kts | 357° |
| 2026-05-06 07:07 | 2.67471 | 145.90939 | 33784 ft | 477 kts | 357° |
| 2026-05-06 07:07 | 2.74130 | 145.90359 | 33785 ft | 476 kts | 357° |
| 2026-05-06 07:08 | 2.80734 | 145.89786 | 33786 ft | 477 kts | 357° |
| 2026-05-06 07:08 | 2.87345 | 145.89210 | 33784 ft | 475 kts | 357° |
| 2026-05-06 07:09 | 2.93962 | 145.88634 | 33785 ft | 475 kts | 357° |
| 2026-05-06 07:09 | 3.00538 | 145.88063 | 33785 ft | 475 kts | 357° |
| 2026-05-06 07:10 | 3.07145 | 145.87488 | 33785 ft | 476 kts | 357° |
| 2026-05-06 07:10 | 3.13776 | 145.86911 | 33787 ft | 475 kts | 357° |
| 2026-05-06 07:11 | 3.20374 | 145.86336 | 33787 ft | 475 kts | 357° |
| 2026-05-06 07:11 | 3.26963 | 145.85762 | 33784 ft | 474 kts | 357° |
| 2026-05-06 07:12 | 3.33573 | 145.85187 | 33774 ft | 474 kts | 357° |
| 2026-05-06 07:12 | 3.40129 | 145.84616 | 33766 ft | 473 kts | 357° |
| 2026-05-06 07:13 | 3.46746 | 145.84039 | 33766 ft | 474 kts | 357° |
| 2026-05-06 07:13 | 3.53326 | 145.83467 | 33766 ft | 475 kts | 357° |
| 2026-05-06 07:14 | 3.59908 | 145.82893 | 33770 ft | 474 kts | 357° |
| 2026-05-06 07:14 | 3.66498 | 145.82320 | 33771 ft | 474 kts | 357° |
| 2026-05-06 07:15 | 3.73102 | 145.81743 | 33772 ft | 474 kts | 357° |
| 2026-05-06 07:15 | 3.79678 | 145.81171 | 33772 ft | 472 kts | 357° |
| 2026-05-06 07:16 | 3.86259 | 145.80597 | 33775 ft | 474 kts | 357° |
| 2026-05-06 07:16 | 3.92824 | 145.80025 | 33782 ft | 474 kts | 357° |
| 2026-05-06 07:17 | 3.99412 | 145.79450 | 33784 ft | 474 kts | 357° |
| 2026-05-06 07:17 | 4.05987 | 145.78877 | 33781 ft | 474 kts | 357° |
| 2026-05-06 07:18 | 4.12593 | 145.78301 | 33786 ft | 474 kts | 357° |
| 2026-05-06 07:18 | 4.19151 | 145.77728 | 33784 ft | 472 kts | 356° |
| 2026-05-06 07:19 | 4.25723 | 145.77155 | 33784 ft | 472 kts | 356° |
| 2026-05-06 07:19 | 4.32265 | 145.76584 | 33780 ft | 471 kts | 356° |
| 2026-05-06 07:20 | 4.38815 | 145.76012 | 33779 ft | 471 kts | 356° |
| 2026-05-06 07:20 | 4.45394 | 145.75438 | 33780 ft | 471 kts | 356° |
| 2026-05-06 07:21 | 4.51939 | 145.74866 | 33780 ft | 470 kts | 356° |
| 2026-05-06 07:21 | 4.58485 | 145.74295 | 33785 ft | 471 kts | 356° |
| 2026-05-06 07:22 | 4.64986 | 145.73727 | 33778 ft | 470 kts | 356° |
| 2026-05-06 07:22 | 4.71559 | 145.73152 | 33771 ft | 471 kts | 356° |
| 2026-05-06 07:23 | 4.78081 | 145.72583 | 33769 ft | 470 kts | 356° |
| 2026-05-06 07:23 | 4.84611 | 145.72012 | 33767 ft | 469 kts | 356° |
| 2026-05-06 07:24 | 4.91167 | 145.71439 | 33764 ft | 470 kts | 356° |
| 2026-05-06 07:24 | 4.97687 | 145.70869 | 33763 ft | 471 kts | 356° |
| 2026-05-06 07:25 | 5.04221 | 145.70293 | 33763 ft | 471 kts | 355° |
| 2026-05-06 07:25 | 5.10768 | 145.69708 | 33763 ft | 471 kts | 355° |
| 2026-05-06 07:26 | 5.17323 | 145.69124 | 33767 ft | 470 kts | 355° |
| 2026-05-06 07:26 | 5.23888 | 145.68538 | 33765 ft | 472 kts | 355° |
| 2026-05-06 07:27 | 5.30444 | 145.67953 | 33764 ft | 469 kts | 355° |
| 2026-05-06 07:27 | 5.36977 | 145.67371 | 33764 ft | 472 kts | 355° |
| 2026-05-06 07:28 | 5.43519 | 145.66786 | 33760 ft | 473 kts | 355° |
| 2026-05-06 07:28 | 5.53393 | 145.65906 | 33754 ft | 472 kts | 355° |
| 2026-05-06 07:29 | 5.59934 | 145.65321 | 33753 ft | 473 kts | 355° |
| 2026-05-06 07:29 | 5.66536 | 145.64732 | 33752 ft | 473 kts | 355° |
| 2026-05-06 07:30 | 5.73098 | 145.64146 | 33751 ft | 471 kts | 355° |
| 2026-05-06 07:30 | 5.79649 | 145.63562 | 33753 ft | 472 kts | 355° |
| 2026-05-06 07:31 | 5.86212 | 145.62975 | 33750 ft | 473 kts | 355° |
| 2026-05-06 07:31 | 5.92802 | 145.62386 | 33750 ft | 474 kts | 355° |
| 2026-05-06 07:32 | 5.99356 | 145.61801 | 33750 ft | 474 kts | 355° |
| 2026-05-06 07:32 | 6.05968 | 145.61209 | 33748 ft | 473 kts | 355° |
| 2026-05-06 07:33 | 6.12524 | 145.60623 | 33750 ft | 473 kts | 355° |
| 2026-05-06 07:33 | 6.19078 | 145.60037 | 33748 ft | 474 kts | 355° |
| 2026-05-06 07:34 | 6.25681 | 145.59447 | 33749 ft | 474 kts | 355° |
| 2026-05-06 07:34 | 6.32271 | 145.58856 | 33748 ft | 473 kts | 355° |
| 2026-05-06 07:35 | 6.38851 | 145.58267 | 33752 ft | 475 kts | 355° |
| 2026-05-06 07:35 | 6.45427 | 145.57678 | 33757 ft | 473 kts | 355° |
| 2026-05-06 07:36 | 6.51980 | 145.57092 | 33750 ft | 473 kts | 355° |
| 2026-05-06 07:36 | 6.58576 | 145.56500 | 33745 ft | 474 kts | 355° |
| 2026-05-06 07:37 | 6.65146 | 145.55911 | 33744 ft | 475 kts | 355° |
| 2026-05-06 07:37 | 6.71775 | 145.55318 | 33741 ft | 475 kts | 355° |
| 2026-05-06 07:38 | 6.78383 | 145.54726 | 33735 ft | 476 kts | 355° |
| 2026-05-06 07:38 | 6.84993 | 145.54132 | 33723 ft | 476 kts | 355° |
| 2026-05-06 07:39 | 6.91626 | 145.53537 | 33726 ft | 478 kts | 355° |
| 2026-05-06 07:39 | 6.98227 | 145.52945 | 33724 ft | 477 kts | 355° |
| 2026-05-06 07:40 | 7.04885 | 145.52348 | 33724 ft | 478 kts | 355° |
| 2026-05-06 07:40 | 7.11543 | 145.51750 | 33727 ft | 478 kts | 355° |
| 2026-05-06 07:41 | 7.18183 | 145.51154 | 33731 ft | 478 kts | 355° |
| 2026-05-06 07:41 | 7.24829 | 145.50557 | 33731 ft | 478 kts | 356° |
| 2026-05-06 07:42 | 7.31468 | 145.49960 | 33728 ft | 478 kts | 356° |
| 2026-05-06 07:42 | 7.38114 | 145.49362 | 33733 ft | 478 kts | 355° |
| 2026-05-06 07:43 | 7.44762 | 145.48764 | 33733 ft | 478 kts | 356° |
| 2026-05-06 07:43 | 7.51426 | 145.48166 | 33734 ft | 479 kts | 356° |
| 2026-05-06 07:44 | 7.58075 | 145.47568 | 33733 ft | 477 kts | 356° |
| 2026-05-06 07:44 | 7.64691 | 145.46971 | 33737 ft | 479 kts | 356° |
| 2026-05-06 07:45 | 7.71368 | 145.46370 | 33735 ft | 479 kts | 356° |
| 2026-05-06 07:45 | 7.78000 | 145.45773 | 33739 ft | 479 kts | 356° |
| 2026-05-06 07:46 | 7.84695 | 145.45171 | 33742 ft | 480 kts | 356° |
| 2026-05-06 07:46 | 7.91342 | 145.44571 | 33739 ft | 482 kts | 356° |
| 2026-05-06 07:47 | 7.94758 | 145.44264 | 33937 ft | 491 kts | 356° |
| 2026-05-06 07:47 | 7.98140 | 145.43959 | 34674 ft | 489 kts | 356° |
| 2026-05-06 07:47 | 8.01517 | 145.43654 | 35541 ft | 485 kts | 357° |
| 2026-05-06 07:47 | 8.04889 | 145.43350 | 35743 ft | 489 kts | 357° |
| 2026-05-06 07:48 | 8.11640 | 145.42741 | 35742 ft | 482 kts | 356° |
| 2026-05-06 07:48 | 8.18380 | 145.42133 | 35746 ft | 483 kts | 356° |
| 2026-05-06 07:49 | 8.25081 | 145.41528 | 35743 ft | 482 kts | 356° |
| 2026-05-06 07:49 | 8.31813 | 145.40920 | 35744 ft | 483 kts | 357° |
| 2026-05-06 07:50 | 8.38550 | 145.40312 | 35749 ft | 484 kts | 356° |
| 2026-05-06 07:50 | 8.45287 | 145.39703 | 35748 ft | 485 kts | 357° |
| 2026-05-06 07:51 | 8.52025 | 145.39094 | 35758 ft | 484 kts | 356° |
| 2026-05-06 07:51 | 8.58735 | 145.38487 | 35762 ft | 484 kts | 356° |
| 2026-05-06 07:52 | 8.65472 | 145.37878 | 35765 ft | 484 kts | 356° |
| 2026-05-06 07:52 | 8.72220 | 145.37267 | 35774 ft | 484 kts | 357° |
| 2026-05-06 07:53 | 8.78912 | 145.36661 | 35778 ft | 485 kts | 357° |
| 2026-05-06 07:53 | 8.85641 | 145.36052 | 35780 ft | 484 kts | 356° |
| 2026-05-06 07:54 | 8.92408 | 145.35439 | 35785 ft | 486 kts | 356° |
| 2026-05-06 07:54 | 8.99165 | 145.34827 | 35789 ft | 485 kts | 356° |
| 2026-05-06 07:55 | 9.05889 | 145.34218 | 35786 ft | 486 kts | 356° |
| 2026-05-06 07:55 | 9.12660 | 145.33603 | 35787 ft | 485 kts | 356° |
| 2026-05-06 07:56 | 9.19415 | 145.32989 | 35792 ft | 486 kts | 356° |
| 2026-05-06 07:56 | 9.26155 | 145.32379 | 35791 ft | 485 kts | 356° |
| 2026-05-06 07:57 | 9.32888 | 145.31767 | 35794 ft | 486 kts | 356° |
| 2026-05-06 07:57 | 9.39647 | 145.31130 | 35803 ft | 485 kts | 355° |
| 2026-05-06 07:58 | 9.46343 | 145.30255 | 35804 ft | 486 kts | 354° |
| 2026-05-06 07:58 | 9.53059 | 145.29373 | 35804 ft | 486 kts | 354° |
| 2026-05-06 07:59 | 9.59826 | 145.28493 | 35805 ft | 487 kts | 354° |
| 2026-05-06 07:59 | 9.66545 | 145.27622 | 35805 ft | 486 kts | 354° |
| 2026-05-06 08:00 | 9.73255 | 145.26755 | 35804 ft | 486 kts | 354° |
| 2026-05-06 08:00 | 9.79997 | 145.25884 | 35804 ft | 487 kts | 354° |
| 2026-05-06 08:01 | 9.86746 | 145.25012 | 35802 ft | 485 kts | 354° |
| 2026-05-06 08:01 | 9.93444 | 145.24147 | 35804 ft | 486 kts | 354° |
| 2026-05-06 08:02 | 10.00163 | 145.23280 | 35804 ft | 485 kts | 354° |
| 2026-05-06 08:02 | 10.06921 | 145.22407 | 35808 ft | 487 kts | 354° |
| 2026-05-06 08:03 | 10.13650 | 145.21538 | 35816 ft | 488 kts | 354° |
| 2026-05-06 08:03 | 10.20383 | 145.20668 | 35814 ft | 487 kts | 354° |
| 2026-05-06 08:04 | 10.27129 | 145.19795 | 35811 ft | 486 kts | 354° |
| 2026-05-06 08:04 | 10.33878 | 145.18922 | 35818 ft | 488 kts | 354° |
| 2026-05-06 08:05 | 10.40651 | 145.18045 | 35814 ft | 488 kts | 354° |
| 2026-05-06 08:05 | 10.47425 | 145.17169 | 35819 ft | 489 kts | 354° |
| 2026-05-06 08:06 | 10.54185 | 145.16293 | 35827 ft | 490 kts | 354° |
| 2026-05-06 08:06 | 10.60951 | 145.15416 | 35826 ft | 488 kts | 353° |
| 2026-05-06 08:07 | 10.67705 | 145.14540 | 35827 ft | 489 kts | 353° |
| 2026-05-06 08:07 | 10.74475 | 145.13663 | 35827 ft | 489 kts | 353° |
| 2026-05-06 08:08 | 10.81252 | 145.12784 | 35826 ft | 490 kts | 354° |
| 2026-05-06 08:08 | 10.88052 | 145.11900 | 35828 ft | 491 kts | 354° |
| 2026-05-06 08:09 | 10.94835 | 145.11020 | 35829 ft | 494 kts | 353° |
| 2026-05-06 08:09 | 11.01699 | 145.10127 | 35831 ft | 492 kts | 353° |
| 2026-05-06 08:10 | 11.08483 | 145.09245 | 35833 ft | 491 kts | 353° |
| 2026-05-06 08:10 | 11.15295 | 145.08360 | 35832 ft | 491 kts | 353° |
| 2026-05-06 08:11 | 11.22105 | 145.07474 | 35836 ft | 491 kts | 353° |
| 2026-05-06 08:11 | 11.28867 | 145.06593 | 35840 ft | 491 kts | 353° |
| 2026-05-06 08:12 | 11.35672 | 145.05707 | 35844 ft | 493 kts | 353° |
| 2026-05-06 08:12 | 11.42470 | 145.04820 | 35844 ft | 492 kts | 353° |
| 2026-05-06 08:13 | 11.49292 | 145.03932 | 35848 ft | 491 kts | 353° |
| 2026-05-06 08:13 | 11.56110 | 145.03043 | 35851 ft | 491 kts | 353° |
| 2026-05-06 08:14 | 11.62901 | 145.02156 | 35852 ft | 492 kts | 352° |
| 2026-05-06 08:14 | 11.69692 | 145.01270 | 35858 ft | 491 kts | 352° |
| 2026-05-06 08:15 | 11.76491 | 145.00382 | 35863 ft | 492 kts | 352° |
| 2026-05-06 08:15 | 11.83295 | 144.99442 | 35869 ft | 490 kts | 351° |
| 2026-05-06 08:16 | 11.90053 | 144.98346 | 35869 ft | 490 kts | 351° |
| 2026-05-06 08:16 | 11.96795 | 144.97255 | 35870 ft | 490 kts | 351° |
| 2026-05-06 08:17 | 12.03537 | 144.96170 | 35867 ft | 488 kts | 351° |
| 2026-05-06 08:17 | 12.10306 | 144.95084 | 35864 ft | 489 kts | 351° |
| 2026-05-06 08:18 | 12.17058 | 144.94000 | 35855 ft | 489 kts | 351° |
| 2026-05-06 08:18 | 12.23768 | 144.92925 | 35853 ft | 489 kts | 351° |
| 2026-05-06 08:19 | 12.30498 | 144.91846 | 35856 ft | 491 kts | 351° |
| 2026-05-06 08:19 | 12.37252 | 144.90762 | 35853 ft | 489 kts | 351° |
| 2026-05-06 08:20 | 12.44012 | 144.89677 | 35855 ft | 490 kts | 350° |
| 2026-05-06 08:20 | 12.50768 | 144.88592 | 35856 ft | 489 kts | 350° |
| 2026-05-06 08:21 | 12.57513 | 144.87509 | 35865 ft | 488 kts | 350° |
| 2026-05-06 08:21 | 12.64250 | 144.86427 | 35870 ft | 489 kts | 350° |
| 2026-05-06 08:22 | 12.70979 | 144.85345 | 35878 ft | 489 kts | 350° |
| 2026-05-06 08:22 | 12.77753 | 144.84256 | 35877 ft | 489 kts | 350° |
| 2026-05-06 08:23 | 12.84512 | 144.83168 | 35879 ft | 490 kts | 350° |
| 2026-05-06 08:23 | 12.91221 | 144.82088 | 35883 ft | 488 kts | 350° |
| 2026-05-06 08:24 | 12.97979 | 144.80998 | 35888 ft | 487 kts | 350° |
| 2026-05-06 08:24 | 13.04689 | 144.79916 | 35889 ft | 488 kts | 350° |
| 2026-05-06 08:25 | 13.11427 | 144.78830 | 35887 ft | 489 kts | 350° |
| 2026-05-06 08:25 | 13.18133 | 144.77748 | 35890 ft | 487 kts | 350° |
| 2026-05-06 08:26 | 13.24848 | 144.76663 | 35895 ft | 489 kts | 350° |
| 2026-05-06 08:26 | 13.31631 | 144.75568 | 35903 ft | 488 kts | 350° |
| 2026-05-06 08:27 | 13.38334 | 144.74484 | 35907 ft | 487 kts | 349° |
| 2026-05-06 08:27 | 13.45039 | 144.73399 | 35908 ft | 487 kts | 349° |
| 2026-05-06 08:28 | 13.51739 | 144.72055 | 35913 ft | 486 kts | 346° |
| 2026-05-06 08:28 | 13.58366 | 144.70604 | 35913 ft | 485 kts | 346° |
| 2026-05-06 08:29 | 13.64971 | 144.69171 | 35911 ft | 485 kts | 347° |
| 2026-05-06 08:29 | 13.71614 | 144.67738 | 35902 ft | 485 kts | 346° |
| 2026-05-06 08:30 | 13.78227 | 144.66315 | 35903 ft | 484 kts | 346° |
| 2026-05-06 08:30 | 13.84844 | 144.64891 | 35887 ft | 484 kts | 346° |
| 2026-05-06 08:31 | 13.91417 | 144.63477 | 35885 ft | 484 kts | 346° |
| 2026-05-06 08:31 | 13.98023 | 144.62056 | 35888 ft | 483 kts | 346° |
| 2026-05-06 08:32 | 14.04616 | 144.60638 | 35891 ft | 483 kts | 346° |
| 2026-05-06 08:32 | 14.11216 | 144.59218 | 35893 ft | 483 kts | 346° |
| 2026-05-06 08:33 | 14.17812 | 144.57797 | 35895 ft | 482 kts | 346° |
| 2026-05-06 08:33 | 14.24368 | 144.56384 | 35904 ft | 482 kts | 346° |
| 2026-05-06 08:34 | 14.34230 | 144.54257 | 35913 ft | 482 kts | 346° |
| 2026-05-06 08:35 | 14.40833 | 144.52834 | 35917 ft | 482 kts | 346° |
| 2026-05-06 08:35 | 14.47411 | 144.51413 | 35917 ft | 482 kts | 346° |
| 2026-05-06 08:36 | 14.53987 | 144.49992 | 35918 ft | 481 kts | 346° |
| 2026-05-06 08:36 | 14.60516 | 144.48581 | 35917 ft | 481 kts | 346° |
| 2026-05-06 08:37 | 14.67098 | 144.47157 | 35921 ft | 481 kts | 346° |
| 2026-05-06 08:37 | 14.73676 | 144.45734 | 35920 ft | 481 kts | 346° |
| 2026-05-06 08:38 | 14.80212 | 144.44318 | 35921 ft | 481 kts | 346° |
| 2026-05-06 08:38 | 14.86795 | 144.42891 | 35925 ft | 480 kts | 346° |
| 2026-05-06 08:39 | 14.93352 | 144.41469 | 35925 ft | 480 kts | 346° |
| 2026-05-06 08:39 | 14.99870 | 144.40054 | 35928 ft | 480 kts | 346° |
| 2026-05-06 08:40 | 15.06435 | 144.38629 | 35928 ft | 480 kts | 346° |
| 2026-05-06 08:40 | 15.12977 | 144.37205 | 35929 ft | 480 kts | 346° |
| 2026-05-06 08:41 | 15.19534 | 144.35773 | 35932 ft | 479 kts | 346° |
| 2026-05-06 08:41 | 15.26046 | 144.34349 | 35937 ft | 479 kts | 345° |
| 2026-05-06 08:42 | 15.32575 | 144.32922 | 35937 ft | 478 kts | 346° |
| 2026-05-06 08:42 | 15.39086 | 144.31497 | 35933 ft | 478 kts | 346° |
| 2026-05-06 08:43 | 15.45603 | 144.30070 | 35929 ft | 477 kts | 346° |
| 2026-05-06 08:43 | 15.52106 | 144.28645 | 35929 ft | 477 kts | 346° |
| 2026-05-06 08:44 | 15.58610 | 144.27219 | 35927 ft | 478 kts | 346° |
| 2026-05-06 08:44 | 15.65145 | 144.25786 | 35929 ft | 477 kts | 346° |
| 2026-05-06 08:45 | 15.71632 | 144.24362 | 35928 ft | 476 kts | 346° |
| 2026-05-06 08:45 | 15.78134 | 144.22934 | 35927 ft | 476 kts | 346° |
| 2026-05-06 08:46 | 15.84589 | 144.21515 | 35929 ft | 475 kts | 346° |
| 2026-05-06 08:46 | 15.91099 | 144.20082 | 35930 ft | 475 kts | 346° |
| 2026-05-06 08:47 | 15.97559 | 144.18661 | 35930 ft | 475 kts | 346° |
| 2026-05-06 08:47 | 16.04061 | 144.17229 | 35936 ft | 476 kts | 346° |
| 2026-05-06 08:48 | 16.10530 | 144.15804 | 35948 ft | 476 kts | 346° |
| 2026-05-06 08:48 | 16.17015 | 144.14372 | 35956 ft | 475 kts | 346° |
| 2026-05-06 08:49 | 16.23489 | 144.12944 | 35955 ft | 474 kts | 346° |
| 2026-05-06 08:49 | 16.29966 | 144.11514 | 35959 ft | 474 kts | 346° |
| 2026-05-06 08:50 | 16.36431 | 144.10084 | 35959 ft | 473 kts | 346° |
| 2026-05-06 08:50 | 16.42900 | 144.08655 | 35960 ft | 474 kts | 346° |
| 2026-05-06 08:51 | 16.49334 | 144.07231 | 35962 ft | 474 kts | 346° |
| 2026-05-06 08:51 | 16.55820 | 144.05794 | 35962 ft | 474 kts | 346° |
| 2026-05-06 08:52 | 16.62250 | 144.04370 | 35965 ft | 474 kts | 346° |
| 2026-05-06 08:52 | 16.68721 | 144.02934 | 35965 ft | 474 kts | 346° |
| 2026-05-06 08:53 | 16.75172 | 144.01503 | 35964 ft | 473 kts | 346° |
| 2026-05-06 08:53 | 16.81641 | 144.00067 | 35967 ft | 474 kts | 347° |
| 2026-05-06 08:54 | 16.88122 | 143.98627 | 35969 ft | 475 kts | 347° |
| 2026-05-06 08:54 | 16.94590 | 143.97188 | 35969 ft | 475 kts | 347° |
| 2026-05-06 08:55 | 17.01088 | 143.95743 | 35970 ft | 475 kts | 347° |
| 2026-05-06 08:55 | 17.07529 | 143.94308 | 35974 ft | 475 kts | 347° |
| 2026-05-06 08:56 | 17.14028 | 143.92860 | 35974 ft | 475 kts | 347° |
| 2026-05-06 08:56 | 17.20497 | 143.91419 | 35978 ft | 475 kts | 347° |
| 2026-05-06 08:57 | 17.26989 | 143.89969 | 35973 ft | 475 kts | 347° |
| 2026-05-06 08:57 | 17.33470 | 143.88522 | 35974 ft | 475 kts | 347° |
| 2026-05-06 08:58 | 17.39969 | 143.87070 | 35972 ft | 476 kts | 347° |
| 2026-05-06 08:58 | 17.46457 | 143.85619 | 35971 ft | 476 kts | 347° |
| 2026-05-06 08:59 | 17.52934 | 143.84169 | 35971 ft | 475 kts | 347° |
| 2026-05-06 08:59 | 17.59407 | 143.82695 | 35971 ft | 475 kts | 347° |
| 2026-05-06 09:00 | 17.65830 | 143.81142 | 35969 ft | 473 kts | 347° |
| 2026-05-06 09:00 | 17.72277 | 143.79582 | 35972 ft | 474 kts | 347° |
| 2026-05-06 09:01 | 17.78724 | 143.78024 | 35971 ft | 476 kts | 347° |
| 2026-05-06 09:01 | 17.85176 | 143.76466 | 35974 ft | 476 kts | 347° |
| 2026-05-06 09:02 | 17.91647 | 143.74904 | 35968 ft | 475 kts | 347° |
| 2026-05-06 09:02 | 17.98093 | 143.73344 | 35976 ft | 476 kts | 347° |
| 2026-05-06 09:03 | 18.04590 | 143.71774 | 35986 ft | 477 kts | 347° |
| 2026-05-06 09:03 | 18.11042 | 143.70213 | 35994 ft | 477 kts | 347° |
| 2026-05-06 09:04 | 18.17512 | 143.68646 | 35991 ft | 476 kts | 347° |
| 2026-05-06 09:04 | 18.23970 | 143.67081 | 35999 ft | 476 kts | 347° |
| 2026-05-06 09:05 | 18.30462 | 143.65506 | 35998 ft | 476 kts | 347° |
| 2026-05-06 09:05 | 18.36925 | 143.63937 | 36001 ft | 477 kts | 347° |
| 2026-05-06 09:06 | 18.43374 | 143.62372 | 36002 ft | 476 kts | 347° |
| 2026-05-06 09:06 | 18.49869 | 143.60792 | 36003 ft | 476 kts | 347° |
| 2026-05-06 09:07 | 18.56303 | 143.59227 | 36003 ft | 475 kts | 347° |
| 2026-05-06 09:07 | 18.62762 | 143.57655 | 36003 ft | 475 kts | 347° |
| 2026-05-06 09:08 | 18.69230 | 143.56079 | 36006 ft | 476 kts | 347° |
| 2026-05-06 09:08 | 18.75682 | 143.54506 | 36006 ft | 476 kts | 347° |
| 2026-05-06 09:09 | 18.82120 | 143.52934 | 36010 ft | 476 kts | 347° |
| 2026-05-06 09:09 | 18.88583 | 143.51356 | 36009 ft | 476 kts | 347° |
| 2026-05-06 09:10 | 18.95082 | 143.49768 | 36012 ft | 477 kts | 347° |
| 2026-05-06 09:10 | 19.01511 | 143.48195 | 36012 ft | 476 kts | 347° |
| 2026-05-06 09:11 | 19.08011 | 143.46603 | 36013 ft | 475 kts | 347° |
| 2026-05-06 09:11 | 19.14458 | 143.45024 | 36016 ft | 475 kts | 347° |
| 2026-05-06 09:12 | 19.20917 | 143.43440 | 36016 ft | 475 kts | 347° |
| 2026-05-06 09:12 | 19.27347 | 143.41862 | 36018 ft | 476 kts | 347° |
| 2026-05-06 09:13 | 19.33835 | 143.40269 | 36021 ft | 476 kts | 347° |
| 2026-05-06 09:13 | 19.40257 | 143.38692 | 36022 ft | 475 kts | 346° |
| 2026-05-06 09:14 | 19.46721 | 143.37100 | 36023 ft | 474 kts | 346° |
| 2026-05-06 09:14 | 19.53181 | 143.35510 | 36026 ft | 474 kts | 346° |
| 2026-05-06 09:15 | 19.59596 | 143.33929 | 36023 ft | 474 kts | 346° |
| 2026-05-06 09:15 | 19.66023 | 143.32344 | 36026 ft | 474 kts | 346° |
| 2026-05-06 09:16 | 19.72494 | 143.30748 | 36030 ft | 475 kts | 346° |
| 2026-05-06 09:16 | 19.78922 | 143.29160 | 36031 ft | 474 kts | 346° |
| 2026-05-06 09:17 | 19.85381 | 143.27563 | 36031 ft | 475 kts | 346° |
| 2026-05-06 09:17 | 19.91804 | 143.25974 | 36034 ft | 474 kts | 346° |
| 2026-05-06 09:18 | 19.98233 | 143.24382 | 36038 ft | 473 kts | 346° |
| 2026-05-06 09:18 | 20.04636 | 143.22795 | 36034 ft | 472 kts | 346° |
| 2026-05-06 09:19 | 20.11074 | 143.21197 | 36038 ft | 474 kts | 346° |
| 2026-05-06 09:19 | 20.17530 | 143.19595 | 36038 ft | 474 kts | 346° |
| 2026-05-06 09:20 | 20.23939 | 143.18004 | 36040 ft | 474 kts | 346° |
| 2026-05-06 09:20 | 20.30411 | 143.16394 | 36040 ft | 473 kts | 346° |
| 2026-05-06 09:21 | 20.36806 | 143.14803 | 36042 ft | 474 kts | 346° |
| 2026-05-06 09:21 | 20.43229 | 143.13202 | 36044 ft | 473 kts | 346° |
| 2026-05-06 09:22 | 20.49665 | 143.11598 | 36049 ft | 474 kts | 346° |
| 2026-05-06 09:22 | 20.56089 | 143.09994 | 36045 ft | 474 kts | 346° |
| 2026-05-06 09:23 | 20.62532 | 143.08385 | 36048 ft | 474 kts | 346° |
| 2026-05-06 09:23 | 20.68941 | 143.06784 | 36051 ft | 474 kts | 346° |
| 2026-05-06 09:24 | 20.75398 | 143.05168 | 36048 ft | 473 kts | 345° |
| 2026-05-06 09:24 | 20.81834 | 143.03557 | 36050 ft | 474 kts | 346° |
| 2026-05-06 09:25 | 20.88238 | 143.01952 | 36050 ft | 474 kts | 346° |
| 2026-05-06 09:25 | 20.94667 | 143.00339 | 36054 ft | 474 kts | 346° |
| 2026-05-06 09:26 | 21.01136 | 142.98718 | 36053 ft | 475 kts | 346° |
| 2026-05-06 09:26 | 21.07599 | 142.97224 | 36054 ft | 474 kts | 346° |
| 2026-05-06 09:27 | 21.14044 | 142.95741 | 36058 ft | 474 kts | 346° |
| 2026-05-06 09:27 | 21.20496 | 142.94251 | 36058 ft | 474 kts | 346° |
| 2026-05-06 09:28 | 21.26991 | 142.92747 | 36059 ft | 475 kts | 346° |
| 2026-05-06 09:28 | 21.33431 | 142.91254 | 36059 ft | 474 kts | 346° |
| 2026-05-06 09:29 | 21.39890 | 142.89754 | 36061 ft | 474 kts | 346° |
| 2026-05-06 09:29 | 21.46339 | 142.88255 | 36062 ft | 474 kts | 346° |
| 2026-05-06 09:30 | 21.52801 | 142.86752 | 36065 ft | 474 kts | 346° |
| 2026-05-06 09:30 | 21.59248 | 142.85251 | 36063 ft | 474 kts | 346° |
| 2026-05-06 09:31 | 21.65711 | 142.83743 | 36068 ft | 474 kts | 346° |
| 2026-05-06 09:31 | 21.72159 | 142.82239 | 36066 ft | 474 kts | 346° |
| 2026-05-06 09:32 | 21.78631 | 142.80727 | 36068 ft | 474 kts | 346° |
| 2026-05-06 09:32 | 21.85078 | 142.79221 | 36068 ft | 474 kts | 346° |
| 2026-05-06 09:33 | 21.91525 | 142.77712 | 36069 ft | 473 kts | 346° |
| 2026-05-06 09:33 | 21.97952 | 142.76205 | 36070 ft | 474 kts | 346° |
| 2026-05-06 09:34 | 22.04417 | 142.74690 | 36070 ft | 474 kts | 346° |
| 2026-05-06 09:34 | 22.10891 | 142.73172 | 36070 ft | 474 kts | 346° |
| 2026-05-06 09:35 | 22.17334 | 142.71658 | 36072 ft | 474 kts | 346° |
| 2026-05-06 09:35 | 22.23784 | 142.70142 | 36069 ft | 474 kts | 346° |
| 2026-05-06 09:36 | 22.30228 | 142.68625 | 36071 ft | 474 kts | 346° |
| 2026-05-06 09:36 | 22.36701 | 142.67101 | 36071 ft | 473 kts | 346° |
| 2026-05-06 09:37 | 22.43166 | 142.65576 | 36070 ft | 473 kts | 346° |
| 2026-05-06 09:37 | 22.49613 | 142.64055 | 36072 ft | 473 kts | 346° |
| 2026-05-06 09:38 | 22.56047 | 142.62535 | 36071 ft | 473 kts | 346° |
| 2026-05-06 09:38 | 22.62202 | 142.61079 | 36068 ft | 473 kts | 346° |
| 2026-05-06 09:39 | 22.68662 | 142.59551 | 36070 ft | 473 kts | 346° |
| 2026-05-06 09:39 | 22.75092 | 142.58028 | 36070 ft | 473 kts | 346° |
| 2026-05-06 09:40 | 22.81520 | 142.56503 | 36072 ft | 472 kts | 346° |
| 2026-05-06 09:40 | 22.91155 | 142.54216 | 36072 ft | 473 kts | 346° |
| 2026-05-06 09:41 | 22.97606 | 142.52683 | 36074 ft | 473 kts | 346° |
| 2026-05-06 09:41 | 23.04043 | 142.51152 | 36076 ft | 473 kts | 346° |
| 2026-05-06 09:42 | 23.10468 | 142.49622 | 36088 ft | 473 kts | 346° |
| 2026-05-06 09:42 | 23.16945 | 142.48077 | 36084 ft | 473 kts | 346° |
| 2026-05-06 09:43 | 23.23346 | 142.46550 | 36080 ft | 473 kts | 346° |
| 2026-05-06 09:43 | 23.29798 | 142.45009 | 36082 ft | 472 kts | 346° |
| 2026-05-06 09:44 | 23.36219 | 142.43474 | 36078 ft | 472 kts | 346° |
| 2026-05-06 09:44 | 23.42659 | 142.41933 | 36087 ft | 472 kts | 346° |
| 2026-05-06 09:45 | 23.49055 | 142.40399 | 36084 ft | 471 kts | 346° |
| 2026-05-06 09:45 | 23.55452 | 142.38867 | 36088 ft | 472 kts | 346° |
| 2026-05-06 09:46 | 23.61913 | 142.37318 | 36089 ft | 472 kts | 346° |
| 2026-05-06 09:46 | 23.68303 | 142.35782 | 36089 ft | 472 kts | 346° |
| 2026-05-06 09:47 | 23.74757 | 142.34229 | 36093 ft | 471 kts | 345° |
| 2026-05-06 09:47 | 23.81142 | 142.32690 | 36097 ft | 471 kts | 345° |
| 2026-05-06 09:48 | 23.87598 | 142.31134 | 36095 ft | 472 kts | 345° |
| 2026-05-06 09:48 | 23.94005 | 142.29588 | 36094 ft | 471 kts | 345° |
| 2026-05-06 09:49 | 24.00421 | 142.28038 | 36096 ft | 471 kts | 345° |
| 2026-05-06 09:49 | 24.06815 | 142.26492 | 36097 ft | 471 kts | 345° |
| 2026-05-06 09:50 | 24.13230 | 142.24940 | 36097 ft | 472 kts | 345° |
| 2026-05-06 09:50 | 24.19687 | 142.23377 | 36097 ft | 471 kts | 345° |
| 2026-05-06 09:51 | 24.26076 | 142.21826 | 36097 ft | 471 kts | 345° |
| 2026-05-06 09:51 | 24.32165 | 142.20348 | 36099 ft | 471 kts | 345° |